Observation data for Fort McKavett on 01/20/2019      Previous  Date       Current Mesonet Observations  Soil Data  Daily Summary Page  Observations in Plain Language
KMC1 200600Z 20002KT M02/M04 A3035 RMK A01 T10191036  RH  088%=      5-min Rain = 0
KMC1 200601Z 20002KT M02/M04 A3035 RMK A01 T10191035  RH  089%=      5-min Rain = 0
KMC1 200602Z 18002KT M02/M04 A3034 RMK A01 T10181035  RH  088%=      5-min Rain = 0
KMC1 200603Z 18001KT M02/M04 A3034 RMK A01 T10181035  RH  088%=      5-min Rain = 0
KMC1 200604Z 17002KT M02/M03 A3034 RMK A01 T10171034  RH  088%=      5-min Rain = 0
KMC1 200605Z 16001KT M02/M03 A3034 RMK A01 T10171034  RH  088%=      5-min Rain = 0
KMC1 200606Z 14001KT M02/M04 A3034 RMK A01 T10171035  RH  088%=      5-min Rain = 0
KMC1 200607Z 12002KT M02/M03 A3034 RMK A01 T10171034  RH  088%=      5-min Rain = 0
KMC1 200608Z 11002KT M02/M03 A3034 RMK A01 T10151033  RH  088%=      5-min Rain = 0
KMC1 200609Z 11002KT M01/M03 A3034 RMK A01 T10141032  RH  088%=      5-min Rain = 0
KMC1 200610Z 11002KT M01/M03 A3034 RMK A01 T10121032  RH  087%=      5-min Rain = 0
KMC1 200611Z 11002KT M01/M03 A3034 RMK A01 T10111031  RH  086%=      5-min Rain = 0
KMC1 200612Z 10002KT M01/M03 A3034 RMK A01 T10081031  RH  085%=      5-min Rain = 0
KMC1 200613Z 10002KT M01/M03 A3034 RMK A01 T10051029  RH  084%=      5-min Rain = 0
KMC1 200614Z 10002KT M00/M03 A3034 RMK A01 T10011029  RH  082%=      5-min Rain = 0
KMC1 200615Z 10002KT 00/03 A3034 RMK A01 T00-00-31  RH  080%=      5-min Rain = 0
KMC1 200616Z 10002KT M00/M03 A3034 RMK A01 T10011032  RH  079%=      5-min Rain = 0
KMC1 200617Z 09002KT M00/M03 A3034 RMK A01 T10011032  RH  079%=      5-min Rain = 0
KMC1 200618Z 08003KT 00/03 A3034 RMK A01 T00000-31  RH  080%=      5-min Rain = 0
KMC1 200619Z 08003KT 00/M03 A3034 RMK A01 T00021030  RH  079%=      5-min Rain = 0
KMC1 200620Z 09003KT 00/M03 A3034 RMK A01 T00041031  RH  077%=      5-min Rain = 0
KMC1 200621Z 10003KT 01/M03 A3034 RMK A01 T00061031  RH  076%=      5-min Rain = 0
KMC1 200622Z 10002KT 01/M03 A3034 RMK A01 T00071031  RH  076%=      5-min Rain = 0
KMC1 200623Z 10002KT 01/M03 A3034 RMK A01 T00061032  RH  075%=      5-min Rain = 0
KMC1 200624Z 09001KT 01/M03 A3034 RMK A01 T00051034  RH  075%=      5-min Rain = 0
KMC1 200625Z 09001KT 00/M04 A3034 RMK A01 T00021037  RH  075%=      5-min Rain = 0
KMC1 200626Z 08001KT M00/M04 A3034 RMK A01 T10021038  RH  077%=      5-min Rain = 0
KMC1 200627Z 09002KT M01/M04 A3034 RMK A01 T10051037  RH  079%=      5-min Rain = 0
KMC1 200628Z 03000KT M01/M04 A3034 RMK A01 T10081038  RH  080%=      5-min Rain = 0
KMC1 200629Z 00000KT M01/M04 A3034 RMK A01 T10111040  RH  081%=      5-min Rain = 0
KMC1 200630Z 32001KT M01/M04 A3035 RMK A01 T10141041  RH  082%=      5-min Rain = 0
KMC1 200631Z 32002KT M02/M04 A3035 RMK A01 T10161041  RH  083%=      5-min Rain = 0
KMC1 200632Z 31001KT M02/M04 A3035 RMK A01 T10181041  RH  084%=      5-min Rain = 0
KMC1 200633Z 30002KT M02/M04 A3035 RMK A01 T10191041  RH  085%=      5-min Rain = 0
KMC1 200634Z 31002KT M02/M04 A3035 RMK A01 T10211041  RH  086%=      5-min Rain = 0
KMC1 200635Z 30002KT M02/M04 A3035 RMK A01 T10221041  RH  087%=      5-min Rain = 0
KMC1 200636Z 29002KT M02/M04 A3035 RMK A01 T10231041  RH  087%=      5-min Rain = 0
KMC1 200637Z 25002KT M02/M04 A3035 RMK A01 T10231041  RH  088%=      5-min Rain = 0
KMC1 200638Z 24003KT M02/M04 A3035 RMK A01 T10231040  RH  088%=      5-min Rain = 0
KMC1 200639Z 23003KT M02/M04 A3035 RMK A01 T10241041  RH  088%=      5-min Rain = 0
KMC1 200640Z 23003KT M02/M04 A3035 RMK A01 T10241041  RH  089%=      5-min Rain = 0
KMC1 200641Z 23002KT M03/M04 A3035 RMK A01 T10251041  RH  089%=      5-min Rain = 0
KMC1 200642Z 23002KT M03/M04 A3035 RMK A01 T10251041  RH  089%=      5-min Rain = 0
KMC1 200643Z 23001KT M03/M04 A3035 RMK A01 T10261042  RH  089%=      5-min Rain = 0
KMC1 200644Z 23001KT M03/M04 A3035 RMK A01 T10261041  RH  089%=      5-min Rain = 0
KMC1 200645Z 00000KT M03/M04 A3035 RMK A01 T10261041  RH  089%=      5-min Rain = 0
KMC1 200646Z 00000KT M03/M04 A3035 RMK A01 T10261041  RH  089%=      5-min Rain = 0
KMC1 200647Z 00000KT M03/M04 A3035 RMK A01 T10261041  RH  090%=      5-min Rain = 0
KMC1 200648Z 00000KT M03/M04 A3035 RMK A01 T10261041  RH  090%=      5-min Rain = 0
KMC1 200649Z 00000KT M03/M04 A3035 RMK A01 T10261040  RH  090%=      5-min Rain = 0
KMC1 200650Z 00000KT M03/M04 A3035 RMK A01 T10261040  RH  090%=      5-min Rain = 0
KMC1 200651Z 00000KT M03/M04 A3035 RMK A01 T10261040  RH  090%=      5-min Rain = 0
KMC1 200652Z 00000KT M03/M04 A3035 RMK A01 T10261040  RH  090%=      5-min Rain = 0
KMC1 200653Z 00000KT M03/M04 A3035 RMK A01 T10261041  RH  090%=      5-min Rain = 0
KMC1 200654Z 00000KT M03/M04 A3035 RMK A01 T10261041  RH  090%=      5-min Rain = 0
KMC1 200655Z 00000KT M03/M04 A3035 RMK A01 T10271041  RH  090%=      5-min Rain = 0
KMC1 200656Z 00000KT M03/M04 A3035 RMK A01 T10271041  RH  090%=      5-min Rain = 0
KMC1 200657Z 00000KT M03/M04 A3035 RMK A01 T10271040  RH  091%=      5-min Rain = 0
KMC1 200658Z 01002KT M03/M04 A3035 RMK A01 T10271040  RH  091%=      5-min Rain = 0
KMC1 200659Z 01002KT M03/M04 A3035 RMK A01 T10271040  RH  091%=      5-min Rain = 0
KMC1 200700Z 02002KT M03/M04 A3035 RMK A01 T10271040  RH  091%=      5-min Rain = 0
KMC1 200701Z 02002KT M03/M04 A3035 RMK A01 T10261040  RH  090%=      5-min Rain = 0
KMC1 200702Z 03002KT M03/M04 A3034 RMK A01 T10261040  RH  090%=      5-min Rain = 0
KMC1 200703Z 04002KT M03/M04 A3034 RMK A01 T10271041  RH  090%=      5-min Rain = 0
KMC1 200704Z 04002KT M03/M04 A3034 RMK A01 T10271041  RH  090%=      5-min Rain = 0
KMC1 200705Z 04002KT M03/M04 A3034 RMK A01 T10281041  RH  090%=      5-min Rain = 0
KMC1 200706Z 04001KT M03/M04 A3034 RMK A01 T10281041  RH  091%=      5-min Rain = 0
KMC1 200707Z 04000KT M03/M04 A3034 RMK A01 T10281041  RH  091%=      5-min Rain = 0
KMC1 200708Z 00000KT M03/M04 A3034 RMK A01 T10281041  RH  091%=      5-min Rain = 0
KMC1 200709Z 00000KT M03/M04 A3034 RMK A01 T10291041  RH  091%=      5-min Rain = 0
KMC1 200710Z 00000KT M03/M04 A3034 RMK A01 T10291042  RH  091%=      5-min Rain = 0
KMC1 200711Z 00000KT M03/M04 A3034 RMK A01 T10291041  RH  091%=      5-min Rain = 0
KMC1 200712Z 30000KT M03/M04 A3035 RMK A01 T10291041  RH  091%=      5-min Rain = 0
KMC1 200713Z 30001KT M03/M04 A3035 RMK A01 T10301042  RH  091%=      5-min Rain = 0
KMC1 200714Z 30001KT M03/M04 A3035 RMK A01 T10301042  RH  091%=      5-min Rain = 0
KMC1 200715Z 29001KT M03/M04 A3035 RMK A01 T10301042  RH  091%=      5-min Rain = 0
KMC1 200716Z 27001KT M03/M04 A3034 RMK A01 T10301042  RH  092%=      5-min Rain = 0
KMC1 200717Z 25001KT M03/M04 A3034 RMK A01 T10311043  RH  092%=      5-min Rain = 0
KMC1 200718Z 25001KT M03/M04 A3034 RMK A01 T10311043  RH  092%=      5-min Rain = 0
KMC1 200719Z 25000KT M03/M04 A3034 RMK A01 T10311043  RH  092%=      5-min Rain = 0
KMC1 200720Z 00000KT M03/M04 A3035 RMK A01 T10311042  RH  092%=      5-min Rain = 0
KMC1 200721Z 00000KT M03/M04 A3035 RMK A01 T10311042  RH  092%=      5-min Rain = 0
KMC1 200722Z 02001KT M03/M04 A3035 RMK A01 T10301041  RH  092%=      5-min Rain = 0
KMC1 200723Z 02002KT M03/M04 A3035 RMK A01 T10301040  RH  092%=      5-min Rain = 0
KMC1 200724Z 03002KT M03/M04 A3035 RMK A01 T10291040  RH  092%=      5-min Rain = 0
KMC1 200725Z 03002KT M03/M04 A3035 RMK A01 T10291040  RH  092%=      5-min Rain = 0
KMC1 200726Z 03002KT M03/M04 A3035 RMK A01 T10301041  RH  092%=      5-min Rain = 0
KMC1 200727Z 04003KT M03/M04 A3035 RMK A01 T10301042  RH  092%=      5-min Rain = 0
KMC1 200728Z 03003KT M03/M04 A3035 RMK A01 T10301042  RH  092%=      5-min Rain = 0
KMC1 200729Z 03003KT M03/M04 A3035 RMK A01 T10311042  RH  092%=      5-min Rain = 0
KMC1 200730Z 03002KT M03/M04 A3035 RMK A01 T10311042  RH  092%=      5-min Rain = 0
KMC1 200731Z 04002KT M03/M04 A3035 RMK A01 T10311042  RH  092%=      5-min Rain = 0
KMC1 200732Z 04002KT M03/M04 A3035 RMK A01 T10311042  RH  092%=      5-min Rain = 0
KMC1 200733Z 04002KT M03/M04 A3035 RMK A01 T10311042  RH  092%=      5-min Rain = 0
KMC1 200734Z 04002KT M03/M04 A3035 RMK A01 T10311042  RH  092%=      5-min Rain = 0
KMC1 200735Z 04002KT M03/M04 A3035 RMK A01 T10321043  RH  092%=      5-min Rain = 0
KMC1 200736Z 04003KT M03/M04 A3035 RMK A01 T10321043  RH  092%=      5-min Rain = 0
KMC1 200737Z 04003KT M03/M04 A3035 RMK A01 T10321042  RH  092%=      5-min Rain = 0
KMC1 200738Z 03003KT M03/M04 A3035 RMK A01 T10321042  RH  093%=      5-min Rain = 0
KMC1 200739Z 03003KT M03/M04 A3035 RMK A01 T10321042  RH  093%=      5-min Rain = 0
KMC1 200740Z 03003KT M03/M04 A3035 RMK A01 T10321041  RH  093%=      5-min Rain = 0
KMC1 200741Z 04003KT M03/M04 A3035 RMK A01 T10311040  RH  094%=      5-min Rain = 0
KMC1 200742Z 04002KT M03/M04 A3034 RMK A01 T10311040  RH  094%=      5-min Rain = 0
KMC1 200743Z 05002KT M03/M04 A3034 RMK A01 T10321041  RH  094%=      5-min Rain = 0
KMC1 200744Z 04003KT M03/M04 A3034 RMK A01 T10321041  RH  094%=      5-min Rain = 0
KMC1 200745Z 04003KT M03/M04 A3035 RMK A01 T10321041  RH  094%=      5-min Rain = 0
KMC1 200746Z 04003KT M03/M04 A3035 RMK A01 T10321040  RH  094%=      5-min Rain = 0
KMC1 200747Z 03004KT M03/M04 A3035 RMK A01 T10321040  RH  094%=      5-min Rain = 0
KMC1 200748Z 03004KT M03/M04 A3035 RMK A01 T10321040  RH  094%=      5-min Rain = 0
KMC1 200749Z 03004KT M03/M04 A3035 RMK A01 T10321040  RH  094%=      5-min Rain = 0
KMC1 200750Z 03004KT M03/M04 A3035 RMK A01 T10321040  RH  094%=      5-min Rain = 0
KMC1 200751Z 04003KT M03/M04 A3034 RMK A01 T10321039  RH  095%=      5-min Rain = 0
KMC1 200752Z 04003KT M03/M04 A3034 RMK A01 T10321039  RH  095%=      5-min Rain = 0
KMC1 200753Z 04003KT M03/M04 A3034 RMK A01 T10321039  RH  095%=      5-min Rain = 0
KMC1 200754Z 04003KT M03/M04 A3034 RMK A01 T10311039  RH  095%=      5-min Rain = 0
KMC1 200755Z 04003KT M03/M04 A3034 RMK A01 T10311039  RH  095%=      5-min Rain = 0
KMC1 200756Z 05003KT M03/M04 A3034 RMK A01 T10311039  RH  095%=      5-min Rain = 0
KMC1 200757Z 05003KT M03/M04 A3034 RMK A01 T10311038  RH  095%=      5-min Rain = 0
KMC1 200758Z 05003KT M03/M04 A3034 RMK A01 T10311038  RH  095%=      5-min Rain = 0
KMC1 200759Z 05004KT M03/M04 A3034 RMK A01 T10301037  RH  095%=      5-min Rain = 0
KMC1 200800Z 05003KT M03/M04 A3034 RMK A01 T10301037  RH  095%=      5-min Rain = 0
KMC1 200801Z 05003KT M03/M04 A3034 RMK A01 T10301037  RH  095%=      5-min Rain = 0
KMC1 200802Z 04003KT M03/M04 A3035 RMK A01 T10311038  RH  095%=      5-min Rain = 0
KMC1 200803Z 04003KT M03/M04 A3035 RMK A01 T10311039  RH  094%=      5-min Rain = 0
KMC1 200804Z 04003KT M03/M04 A3035 RMK A01 T10311039  RH  094%=      5-min Rain = 0
KMC1 200805Z 04003KT M03/M04 A3034 RMK A01 T10321040  RH  094%=      5-min Rain = 0
KMC1 200806Z 04003KT M03/M04 A3034 RMK A01 T10321040  RH  094%=      5-min Rain = 0
KMC1 200807Z 04002KT M03/M04 A3035 RMK A01 T10321039  RH  095%=      5-min Rain = 0
KMC1 200808Z 04003KT M03/M04 A3035 RMK A01 T10321039  RH  095%=      5-min Rain = 0
KMC1 200809Z 04003KT M03/M04 A3035 RMK A01 T10311038  RH  095%=      5-min Rain = 0
KMC1 200810Z 04003KT M03/M03 A3035 RMK A01 T10291034  RH  096%=      5-min Rain = 0
KMC1 200811Z 04003KT M03/M03 A3035 RMK A01 T10251030  RH  097%=      5-min Rain = 0
KMC1 200812Z 04004KT M02/M03 A3035 RMK A01 T10231028  RH  096%=      5-min Rain = 0
KMC1 200813Z 05004KT M02/M03 A3035 RMK A01 T10221029  RH  095%=      5-min Rain = 0
KMC1 200814Z 05004KT M02/M03 A3035 RMK A01 T10211030  RH  093%=      5-min Rain = 0
KMC1 200815Z 05004KT M02/M03 A3035 RMK A01 T10211033  RH  092%=      5-min Rain = 0
KMC1 200816Z 05004KT M02/M04 A3035 RMK A01 T10221035  RH  091%=      5-min Rain = 0
KMC1 200817Z 05004KT M02/M04 A3035 RMK A01 T10221035  RH  091%=      5-min Rain = 0
KMC1 200818Z 05004KT M02/M04 A3035 RMK A01 T10221035  RH  091%=      5-min Rain = 0
KMC1 200819Z 05004KT M02/M04 A3035 RMK A01 T10221036  RH  090%=      5-min Rain = 0
KMC1 200820Z 06004KT M02/M04 A3035 RMK A01 T10231037  RH  090%=      5-min Rain = 0
KMC1 200821Z 06004KT M02/M04 A3035 RMK A01 T10231037  RH  090%=      5-min Rain = 0
KMC1 200822Z 06004KT M02/M04 A3035 RMK A01 T10231037  RH  090%=      5-min Rain = 0
KMC1 200823Z 06004KT M02/M04 A3035 RMK A01 T10241038  RH  090%=      5-min Rain = 0
KMC1 200824Z 07005KT M03/M04 A3035 RMK A01 T10251039  RH  090%=      5-min Rain = 0
KMC1 200825Z 06006KT M03/M04 A3034 RMK A01 T10261039  RH  091%=      5-min Rain = 0
KMC1 200826Z 07006KT M03/M04 A3034 RMK A01 T10271041  RH  090%=      5-min Rain = 0
KMC1 200827Z 07006KT M03/M04 A3034 RMK A01 T10291042  RH  090%=      5-min Rain = 0
KMC1 200828Z 07007KT M03/M04 A3034 RMK A01 T10291042  RH  091%=      5-min Rain = 0
KMC1 200829Z 07007KT M03/M04 A3033 RMK A01 T10291041  RH  092%=      5-min Rain = 0
KMC1 200830Z 07006KT M03/M04 A3033 RMK A01 T10291040  RH  092%=      5-min Rain = 0
KMC1 200831Z 08005KT M03/M04 A3033 RMK A01 T10291040  RH  092%=      5-min Rain = 0
KMC1 200832Z 08005KT M03/M04 A3033 RMK A01 T10281039  RH  093%=      5-min Rain = 0
KMC1 200833Z 07006KT M03/M04 A3033 RMK A01 T10281038  RH  093%=      5-min Rain = 0
KMC1 200834Z 07006KT M03/M04 A3033 RMK A01 T10271037  RH  093%=      5-min Rain = 0
KMC1 200835Z 08005KT M03/M04 A3033 RMK A01 T10261036  RH  093%=      5-min Rain = 0
KMC1 200836Z 07005KT M03/M04 A3033 RMK A01 T10251035  RH  093%=      5-min Rain = 0
KMC1 200837Z 08006KT M02/M03 A3033 RMK A01 T10231034  RH  092%=      5-min Rain = 0
KMC1 200838Z 07006KT M02/M03 A3033 RMK A01 T10221033  RH  092%=      5-min Rain = 0
KMC1 200839Z 08005KT M02/M03 A3033 RMK A01 T10211034  RH  091%=      5-min Rain = 0
KMC1 200840Z 07005KT M02/M03 A3033 RMK A01 T10201034  RH  090%=      5-min Rain = 0
KMC1 200841Z 07005KT M02/M04 A3034 RMK A01 T10201035  RH  090%=      5-min Rain = 0
KMC1 200842Z 07003KT M02/M04 A3034 RMK A01 T10201036  RH  089%=      5-min Rain = 0
KMC1 200843Z 09002KT M02/M04 A3034 RMK A01 T10201036  RH  089%=      5-min Rain = 0
KMC1 200844Z 08001KT M02/M04 A3034 RMK A01 T10211036  RH  089%=      5-min Rain = 0
KMC1 200845Z 08002KT M02/M04 A3035 RMK A01 T10211036  RH  089%=      5-min Rain = 0
KMC1 200846Z 07003KT M02/M04 A3035 RMK A01 T10211037  RH  089%=      5-min Rain = 0
KMC1 200847Z 08003KT M02/M04 A3034 RMK A01 T10211037  RH  089%=      5-min Rain = 0
KMC1 200848Z 07003KT M02/M04 A3034 RMK A01 T10211037  RH  089%=      5-min Rain = 0
KMC1 200849Z 07004KT M02/M04 A3034 RMK A01 T10221038  RH  089%=      5-min Rain = 0
KMC1 200850Z 07004KT M02/M04 A3034 RMK A01 T10221038  RH  089%=      5-min Rain = 0
KMC1 200851Z 07004KT M02/M04 A3034 RMK A01 T10221038  RH  089%=      5-min Rain = 0
KMC1 200852Z 06004KT M02/M04 A3034 RMK A01 T10221038  RH  089%=      5-min Rain = 0
KMC1 200853Z 06004KT M02/M04 A3034 RMK A01 T10221038  RH  089%=      5-min Rain = 0
KMC1 200854Z 05004KT M02/M04 A3034 RMK A01 T10221039  RH  088%=      5-min Rain = 0
KMC1 200855Z 05003KT M02/M04 A3034 RMK A01 T10221039  RH  088%=      5-min Rain = 0
KMC1 200856Z 06003KT M02/M04 A3034 RMK A01 T10221038  RH  088%=      5-min Rain = 0
KMC1 200857Z 07002KT M02/M04 A3034 RMK A01 T10221039  RH  088%=      5-min Rain = 0
KMC1 200858Z 07002KT M02/M04 A3034 RMK A01 T10221040  RH  088%=      5-min Rain = 0
KMC1 200859Z 08002KT M02/M04 A3034 RMK A01 T10221040  RH  088%=      5-min Rain = 0
KMC1 200900Z 08002KT M02/M04 A3034 RMK A01 T10221040  RH  088%=      5-min Rain = 0
KMC1 200901Z 08002KT M02/M04 A3035 RMK A01 T10231040  RH  088%=      5-min Rain = 0
KMC1 200902Z 08002KT M02/M04 A3035 RMK A01 T10231040  RH  088%=      5-min Rain = 0
KMC1 200903Z 08001KT M02/M04 A3035 RMK A01 T10231040  RH  088%=      5-min Rain = 0
KMC1 200904Z 07001KT M02/M04 A3035 RMK A01 T10231040  RH  088%=      5-min Rain = 0
KMC1 200905Z 07001KT M02/M04 A3035 RMK A01 T10231040  RH  088%=      5-min Rain = 0
KMC1 200906Z 07001KT M02/M04 A3035 RMK A01 T10231040  RH  088%=      5-min Rain = 0
KMC1 200907Z 07001KT M02/M04 A3035 RMK A01 T10241041  RH  088%=      5-min Rain = 0
KMC1 200908Z 06002KT M03/M04 A3035 RMK A01 T10251042  RH  088%=      5-min Rain = 0
KMC1 200909Z 07002KT M03/M04 A3035 RMK A01 T10251041  RH  088%=      5-min Rain = 0
KMC1 200910Z 07001KT M03/M04 A3035 RMK A01 T10251041  RH  089%=      5-min Rain = 0
KMC1 200911Z 08001KT M03/M04 A3035 RMK A01 T10251040  RH  089%=      5-min Rain = 0
KMC1 200912Z 10000KT M03/M04 A3035 RMK A01 T10251041  RH  089%=      5-min Rain = 0
KMC1 200913Z 21001KT M03/M04 A3035 RMK A01 T10251042  RH  088%=      5-min Rain = 0
KMC1 200914Z 21002KT M03/M04 A3035 RMK A01 T10261042  RH  088%=      5-min Rain = 0
KMC1 200915Z 21003KT M03/M04 A3035 RMK A01 T10271043  RH  089%=      5-min Rain = 0
KMC1 200916Z 21003KT M03/M04 A3035 RMK A01 T10281043  RH  089%=      5-min Rain = 0
KMC1 200917Z 21003KT M03/M04 A3035 RMK A01 T10281043  RH  090%=      5-min Rain = 0
KMC1 200918Z 21004KT M03/M04 A3035 RMK A01 T10281042  RH  090%=      5-min Rain = 0
KMC1 200919Z 21004KT M03/M04 A3036 RMK A01 T10281042  RH  090%=      5-min Rain = 0
KMC1 200920Z 21003KT M03/M04 A3036 RMK A01 T10281042  RH  090%=      5-min Rain = 0
KMC1 200921Z 21003KT M03/M04 A3036 RMK A01 T10281041  RH  090%=      5-min Rain = 0
KMC1 200922Z 21003KT M03/M04 A3036 RMK A01 T10281041  RH  090%=      5-min Rain = 0
KMC1 200923Z 21003KT M03/M04 A3036 RMK A01 T10281041  RH  090%=      5-min Rain = 0
KMC1 200924Z 21003KT M03/M04 A3036 RMK A01 T10281041  RH  091%=      5-min Rain = 0
KMC1 200925Z 21004KT M03/M04 A3036 RMK A01 T10281041  RH  091%=      5-min Rain = 0
KMC1 200926Z 20004KT M03/M04 A3036 RMK A01 T10281041  RH  091%=      5-min Rain = 0
KMC1 200927Z 20004KT M03/M04 A3036 RMK A01 T10281041  RH  091%=      5-min Rain = 0
KMC1 200928Z 20004KT M03/M04 A3036 RMK A01 T10281042  RH  091%=      5-min Rain = 0
KMC1 200929Z 20004KT M03/M04 A3036 RMK A01 T10281042  RH  090%=      5-min Rain = 0
KMC1 200930Z 20004KT M03/M04 A3036 RMK A01 T10281042  RH  090%=      5-min Rain = 0
KMC1 200931Z 20004KT M03/M04 A3036 RMK A01 T10281043  RH  090%=      5-min Rain = 0
KMC1 200932Z 20004KT M03/M04 A3036 RMK A01 T10281043  RH  090%=      5-min Rain = 0
KMC1 200933Z 20003KT M03/M04 A3036 RMK A01 T10291044  RH  090%=      5-min Rain = 0
KMC1 200934Z 19003KT M03/M04 A3036 RMK A01 T10291044  RH  089%=      5-min Rain = 0
KMC1 200935Z 18003KT M03/M04 A3036 RMK A01 T10291044  RH  089%=      5-min Rain = 0
KMC1 200936Z 19003KT M03/M04 A3037 RMK A01 T10281044  RH  089%=      5-min Rain = 0
KMC1 200937Z 19003KT M03/M04 A3037 RMK A01 T10291044  RH  089%=      5-min Rain = 0
KMC1 200938Z 19003KT M03/M05 A3037 RMK A01 T10291045  RH  089%=      5-min Rain = 0
KMC1 200939Z 19003KT M03/M05 A3037 RMK A01 T10291045  RH  088%=      5-min Rain = 0
KMC1 200940Z 19003KT M03/M05 A3037 RMK A01 T10281046  RH  088%=      5-min Rain = 0
KMC1 200941Z 19003KT M03/M05 A3037 RMK A01 T10291047  RH  088%=      5-min Rain = 0
KMC1 200942Z 18003KT M03/M05 A3037 RMK A01 T10291046  RH  088%=      5-min Rain = 0
KMC1 200943Z 19002KT M03/M05 A3037 RMK A01 T10291047  RH  087%=      5-min Rain = 0
KMC1 200944Z 18003KT M03/M05 A3037 RMK A01 T10291047  RH  087%=      5-min Rain = 0
KMC1 200945Z 19002KT M03/M05 A3037 RMK A01 T10291047  RH  087%=      5-min Rain = 0
KMC1 200946Z 20002KT M03/M05 A3037 RMK A01 T10291047  RH  087%=      5-min Rain = 0
KMC1 200947Z 20003KT M03/M05 A3037 RMK A01 T10291047  RH  087%=      5-min Rain = 0
KMC1 200948Z 20004KT M03/M05 A3037 RMK A01 T10291047  RH  087%=      5-min Rain = 0
KMC1 200949Z 19005KT M03/M05 A3037 RMK A01 T10291048  RH  087%=      5-min Rain = 0
KMC1 200950Z 19004KT M03/M05 A3036 RMK A01 T10291048  RH  087%=      5-min Rain = 0
KMC1 200951Z 18004KT M03/M05 A3036 RMK A01 T10301048  RH  087%=      5-min Rain = 0
KMC1 200952Z 18004KT M03/M05 A3036 RMK A01 T10301048  RH  087%=      5-min Rain = 0
KMC1 200953Z 18004KT M03/M05 A3036 RMK A01 T10301048  RH  088%=      5-min Rain = 0
KMC1 200954Z 18004KT M03/M05 A3036 RMK A01 T10291047  RH  088%=      5-min Rain = 0
KMC1 200955Z 17003KT M03/M05 A3036 RMK A01 T10291047  RH  087%=      5-min Rain = 0
KMC1 200956Z 17002KT M03/M05 A3036 RMK A01 T10281047  RH  087%=      5-min Rain = 0
KMC1 200957Z 18003KT M03/M05 A3036 RMK A01 T10281047  RH  087%=      5-min Rain = 0
KMC1 200958Z 19003KT M03/M05 A3036 RMK A01 T10281047  RH  087%=      5-min Rain = 0
KMC1 200959Z 19003KT M03/M05 A3036 RMK A01 T10281047  RH  086%=      5-min Rain = 0
KMC1 201000Z 19004KT M03/M05 A3036 RMK A01 T10281047  RH  087%=      5-min Rain = 0
KMC1 201001Z 19004KT M03/M05 A3036 RMK A01 T10281048  RH  087%=      5-min Rain = 0
KMC1 201002Z 19004KT M03/M05 A3036 RMK A01 T10291048  RH  087%=      5-min Rain = 0
KMC1 201003Z 20004KT M03/M05 A3036 RMK A01 T10291048  RH  087%=      5-min Rain = 0
KMC1 201004Z 20004KT M03/M05 A3036 RMK A01 T10281048  RH  087%=      5-min Rain = 0
KMC1 201005Z 20004KT M03/M05 A3036 RMK A01 T10281048  RH  086%=      5-min Rain = 0
KMC1 201006Z 20004KT M03/M05 A3036 RMK A01 T10281047  RH  086%=      5-min Rain = 0
KMC1 201007Z 19004KT M03/M05 A3036 RMK A01 T10271047  RH  086%=      5-min Rain = 0
KMC1 201008Z 19003KT M03/M05 A3036 RMK A01 T10271048  RH  086%=      5-min Rain = 0
KMC1 201009Z 19003KT M03/M05 A3036 RMK A01 T10281048  RH  086%=      5-min Rain = 0
KMC1 201010Z 19002KT M03/M05 A3036 RMK A01 T10271047  RH  086%=      5-min Rain = 0
KMC1 201011Z 19002KT M03/M05 A3036 RMK A01 T10271047  RH  086%=      5-min Rain = 0
KMC1 201012Z 18002KT M03/M05 A3036 RMK A01 T10281048  RH  086%=      5-min Rain = 0
KMC1 201013Z 19002KT M03/M05 A3036 RMK A01 T10281048  RH  086%=      5-min Rain = 0
KMC1 201014Z 19002KT M03/M05 A3036 RMK A01 T10291048  RH  086%=      5-min Rain = 0
KMC1 201015Z 19002KT M03/M05 A3036 RMK A01 T10281048  RH  087%=      5-min Rain = 0
KMC1 201016Z 18002KT M03/M05 A3036 RMK A01 T10291048  RH  087%=      5-min Rain = 0
KMC1 201017Z 17002KT M03/M05 A3036 RMK A01 T10291048  RH  087%=      5-min Rain = 0
KMC1 201018Z 16003KT M03/M05 A3036 RMK A01 T10301049  RH  087%=      5-min Rain = 0
KMC1 201019Z 16003KT M03/M05 A3036 RMK A01 T10301049  RH  087%=      5-min Rain = 0
KMC1 201020Z 17004KT M03/M05 A3036 RMK A01 T10301048  RH  087%=      5-min Rain = 0
KMC1 201021Z 18005KT M03/M05 A3036 RMK A01 T10301048  RH  087%=      5-min Rain = 0
KMC1 201022Z 18005KT M03/M05 A3036 RMK A01 T10301048  RH  087%=      5-min Rain = 0
KMC1 201023Z 18005KT M03/M05 A3036 RMK A01 T10291048  RH  087%=      5-min Rain = 0
KMC1 201024Z 18005KT M03/M05 A3036 RMK A01 T10291048  RH  087%=      5-min Rain = 0
KMC1 201025Z 17004KT M03/M05 A3035 RMK A01 T10281047  RH  087%=      5-min Rain = 0
KMC1 201026Z 17004KT M03/M05 A3035 RMK A01 T10261045  RH  087%=      5-min Rain = 0
KMC1 201027Z 17005KT M03/M05 A3035 RMK A01 T10251045  RH  086%=      5-min Rain = 0
KMC1 201028Z 18005KT M03/M05 A3035 RMK A01 T10251045  RH  086%=      5-min Rain = 0
KMC1 201029Z 18004KT M02/M05 A3035 RMK A01 T10241045  RH  085%=      5-min Rain = 0
KMC1 201030Z 18004KT M02/M05 A3035 RMK A01 T10241045  RH  085%=      5-min Rain = 0
KMC1 201031Z 18003KT M02/M05 A3035 RMK A01 T10241045  RH  085%=      5-min Rain = 0
KMC1 201032Z 17003KT M02/M05 A3035 RMK A01 T10241045  RH  085%=      5-min Rain = 0
KMC1 201033Z 17004KT M02/M05 A3035 RMK A01 T10241045  RH  085%=      5-min Rain = 0
KMC1 201034Z 18005KT M02/M05 A3035 RMK A01 T10241045  RH  085%=      5-min Rain = 0
KMC1 201035Z 18004KT M02/M05 A3035 RMK A01 T10241045  RH  085%=      5-min Rain = 0
KMC1 201036Z 17004KT M02/M05 A3035 RMK A01 T10241045  RH  085%=      5-min Rain = 0
KMC1 201037Z 16004KT M02/M05 A3035 RMK A01 T10241045  RH  085%=      5-min Rain = 0
KMC1 201038Z 16004KT M02/M05 A3035 RMK A01 T10241045  RH  085%=      5-min Rain = 0
KMC1 201039Z 16004KT M02/M05 A3035 RMK A01 T10241045  RH  085%=      5-min Rain = 0
KMC1 201040Z 15004KT M02/M05 A3035 RMK A01 T10241045  RH  086%=      5-min Rain = 0
KMC1 201041Z 15004KT M02/M05 A3035 RMK A01 T10241045  RH  086%=      5-min Rain = 0
KMC1 201042Z 16004KT M02/M05 A3035 RMK A01 T10241045  RH  086%=      5-min Rain = 0
KMC1 201043Z 16004KT M03/M05 A3035 RMK A01 T10251045  RH  086%=      5-min Rain = 0
KMC1 201044Z 16004KT M03/M05 A3035 RMK A01 T10251045  RH  086%=      5-min Rain = 0
KMC1 201045Z 16004KT M03/M05 A3035 RMK A01 T10251045  RH  086%=      5-min Rain = 0
KMC1 201046Z 15003KT M02/M04 A3035 RMK A01 T10241044  RH  086%=      5-min Rain = 0
KMC1 201047Z 14003KT M03/M04 A3035 RMK A01 T10251044  RH  087%=      5-min Rain = 0
KMC1 201048Z 11002KT M02/M04 A3035 RMK A01 T10241043  RH  087%=      5-min Rain = 0
KMC1 201049Z 11002KT M02/M04 A3035 RMK A01 T10241044  RH  087%=      5-min Rain = 0
KMC1 201050Z 13002KT M02/M04 A3035 RMK A01 T10241044  RH  086%=      5-min Rain = 0
KMC1 201051Z 14002KT M02/M04 A3035 RMK A01 T10241044  RH  086%=      5-min Rain = 0
KMC1 201052Z 14002KT M03/M05 A3035 RMK A01 T10251045  RH  086%=      5-min Rain = 0
KMC1 201053Z 13002KT M03/M05 A3035 RMK A01 T10251045  RH  086%=      5-min Rain = 0
KMC1 201054Z 11002KT M03/M05 A3035 RMK A01 T10251045  RH  086%=      5-min Rain = 0
KMC1 201055Z 12002KT M03/M05 A3035 RMK A01 T10251045  RH  086%=      5-min Rain = 0
KMC1 201056Z 12001KT M03/M05 A3035 RMK A01 T10261046  RH  086%=      5-min Rain = 0
KMC1 201057Z 14001KT M03/M05 A3035 RMK A01 T10271046  RH  086%=      5-min Rain = 0
KMC1 201058Z 14001KT M03/M05 A3035 RMK A01 T10271047  RH  086%=      5-min Rain = 0
KMC1 201059Z 14001KT M03/M05 A3035 RMK A01 T10281047  RH  086%=      5-min Rain = 0
KMC1 201100Z 13001KT M03/M05 A3035 RMK A01 T10291048  RH  086%=      5-min Rain = 0
KMC1 201101Z 13001KT M03/M05 A3035 RMK A01 T10301049  RH  087%=      5-min Rain = 0
KMC1 201102Z 13001KT M03/M05 A3035 RMK A01 T10301049  RH  087%=      5-min Rain = 0
KMC1 201103Z 13001KT M03/M05 A3035 RMK A01 T10311049  RH  087%=      5-min Rain = 0
KMC1 201104Z 12000KT M03/M05 A3035 RMK A01 T10311049  RH  088%=      5-min Rain = 0
KMC1 201105Z 11000KT M03/M05 A3035 RMK A01 T10321049  RH  088%=      5-min Rain = 0
KMC1 201106Z 08001KT M03/M05 A3035 RMK A01 T10321049  RH  088%=      5-min Rain = 0
KMC1 201107Z 06001KT M03/M05 A3035 RMK A01 T10321048  RH  089%=      5-min Rain = 0
KMC1 201108Z 05001KT M03/M05 A3035 RMK A01 T10321047  RH  090%=      5-min Rain = 0
KMC1 201109Z 03001KT M03/M05 A3035 RMK A01 T10331047  RH  090%=      5-min Rain = 0
KMC1 201110Z 03001KT M03/M05 A3035 RMK A01 T10321047  RH  089%=      5-min Rain = 0
KMC1 201111Z 03000KT M03/M05 A3035 RMK A01 T10331048  RH  089%=      5-min Rain = 0
KMC1 201112Z 03000KT M03/M05 A3035 RMK A01 T10331048  RH  090%=      5-min Rain = 0
KMC1 201113Z 03001KT M03/M05 A3035 RMK A01 T10341047  RH  090%=      5-min Rain = 0
KMC1 201114Z 03001KT M03/M05 A3034 RMK A01 T10341047  RH  091%=      5-min Rain = 0
KMC1 201115Z 04002KT M03/M05 A3034 RMK A01 T10341047  RH  091%=      5-min Rain = 0
KMC1 201116Z 04003KT M03/M05 A3034 RMK A01 T10341046  RH  091%=      5-min Rain = 0
KMC1 201117Z 04003KT M04/M05 A3034 RMK A01 T10351047  RH  091%=      5-min Rain = 0
KMC1 201118Z 04003KT M04/M05 A3034 RMK A01 T10351047  RH  092%=      5-min Rain = 0
KMC1 201119Z 04003KT M04/M05 A3034 RMK A01 T10361047  RH  092%=      5-min Rain = 0
KMC1 201120Z 04003KT M04/M05 A3034 RMK A01 T10361048  RH  092%=      5-min Rain = 0
KMC1 201121Z 04003KT M04/M05 A3034 RMK A01 T10361047  RH  092%=      5-min Rain = 0
KMC1 201122Z 04003KT M04/M05 A3034 RMK A01 T10371047  RH  093%=      5-min Rain = 0
KMC1 201123Z 04003KT M04/M05 A3034 RMK A01 T10371047  RH  093%=      5-min Rain = 0
KMC1 201124Z 04003KT M04/M05 A3034 RMK A01 T10371047  RH  093%=      5-min Rain = 0
KMC1 201125Z 04003KT M04/M05 A3035 RMK A01 T10371047  RH  093%=      5-min Rain = 0
KMC1 201126Z 05003KT M04/M05 A3035 RMK A01 T10371047  RH  093%=      5-min Rain = 0
KMC1 201127Z 05003KT M04/M05 A3035 RMK A01 T10371047  RH  093%=      5-min Rain = 0
KMC1 201128Z 05003KT M04/M05 A3035 RMK A01 T10381047  RH  093%=      5-min Rain = 0
KMC1 201129Z 04003KT M04/M05 A3035 RMK A01 T10391048  RH  093%=      5-min Rain = 0
KMC1 201130Z 04003KT M04/M05 A3035 RMK A01 T10391048  RH  093%=      5-min Rain = 0
KMC1 201131Z 04003KT M04/M05 A3035 RMK A01 T10391048  RH  093%=      5-min Rain = 0
KMC1 201132Z 03003KT M04/M05 A3035 RMK A01 T10401048  RH  094%=      5-min Rain = 0
KMC1 201133Z 03003KT M04/M05 A3035 RMK A01 T10391048  RH  094%=      5-min Rain = 0
KMC1 201134Z 04003KT M04/M05 A3035 RMK A01 T10401048  RH  094%=      5-min Rain = 0
KMC1 201135Z 04003KT M04/M05 A3035 RMK A01 T10401047  RH  095%=      5-min Rain = 0
KMC1 201136Z 05003KT M04/M05 A3035 RMK A01 T10411048  RH  095%=      5-min Rain = 0
KMC1 201137Z 05003KT M04/M05 A3035 RMK A01 T10401047  RH  095%=      5-min Rain = 0
KMC1 201138Z 05003KT M04/M05 A3035 RMK A01 T10411048  RH  095%=      5-min Rain = 0
KMC1 201139Z 05003KT M04/M05 A3035 RMK A01 T10411048  RH  095%=      5-min Rain = 0
KMC1 201140Z 05003KT M04/M05 A3035 RMK A01 T10411048  RH  095%=      5-min Rain = 0
KMC1 201141Z 05003KT M04/M05 A3035 RMK A01 T10421049  RH  095%=      5-min Rain = 0
KMC1 201142Z 04004KT M04/M05 A3035 RMK A01 T10421049  RH  095%=      5-min Rain = 0
KMC1 201143Z 05004KT M04/M05 A3035 RMK A01 T10431050  RH  095%=      5-min Rain = 0
KMC1 201144Z 05004KT M04/M05 A3035 RMK A01 T10431050  RH  095%=      5-min Rain = 0
KMC1 201145Z 05004KT M04/M05 A3035 RMK A01 T10431050  RH  095%=      5-min Rain = 0
KMC1 201146Z 05003KT M04/M05 A3035 RMK A01 T10431050  RH  095%=      5-min Rain = 0
KMC1 201147Z 05003KT M04/M05 A3035 RMK A01 T10441050  RH  095%=      5-min Rain = 0
KMC1 201148Z 05003KT M04/M05 A3035 RMK A01 T10441050  RH  095%=      5-min Rain = 0
KMC1 201149Z 05003KT M04/M05 A3035 RMK A01 T10441050  RH  095%=      5-min Rain = 0
KMC1 201150Z 05003KT M04/M05 A3035 RMK A01 T10441050  RH  096%=      5-min Rain = 0
KMC1 201151Z 05003KT M04/M05 A3035 RMK A01 T10441050  RH  096%=      5-min Rain = 0
KMC1 201152Z 05002KT M04/M05 A3035 RMK A01 T10441049  RH  096%=      5-min Rain = 0
KMC1 201153Z 05002KT M04/M05 A3035 RMK A01 T10431049  RH  096%=      5-min Rain = 0
KMC1 201154Z 05002KT M04/M05 A3035 RMK A01 T10431049  RH  096%=      5-min Rain = 0
KMC1 201155Z 05003KT M04/M05 A3035 RMK A01 T10431049  RH  096%=      5-min Rain = 0
KMC1 201156Z 05003KT M04/M05 A3035 RMK A01 T10441049  RH  096%=      5-min Rain = 0
KMC1 201157Z 05003KT M04/M05 A3035 RMK A01 T10441049  RH  096%=      5-min Rain = 0
KMC1 201158Z 05003KT M04/M05 A3035 RMK A01 T10441049  RH  096%=      5-min Rain = 0
KMC1 201159Z 05002KT M04/M05 A3035 RMK A01 T10441050  RH  096%=      5-min Rain = 0
KMC1 201200Z 05002KT M04/M05 A3035 RMK A01 T10441050  RH  096%=      5-min Rain = 0
KMC1 201201Z 06002KT M05/M05 A3035 RMK A01 T10451051  RH  096%=      5-min Rain = 0
KMC1 201202Z 05002KT M05/M05 A3035 RMK A01 T10451051  RH  096%=      5-min Rain = 0
KMC1 201203Z 06002KT M05/M05 A3035 RMK A01 T10451051  RH  096%=      5-min Rain = 0
KMC1 201204Z 06003KT M05/M05 A3035 RMK A01 T10451050  RH  096%=      5-min Rain = 0
KMC1 201205Z 07002KT M04/M05 A3035 RMK A01 T10441049  RH  096%=      5-min Rain = 0
KMC1 201206Z 08002KT M04/M05 A3035 RMK A01 T10441050  RH  096%=      5-min Rain = 0
KMC1 201207Z 07002KT M04/M05 A3035 RMK A01 T10441050  RH  096%=      5-min Rain = 0
KMC1 201208Z 08002KT M04/M05 A3034 RMK A01 T10441050  RH  096%=      5-min Rain = 0
KMC1 201209Z 07003KT M04/M05 A3034 RMK A01 T10441050  RH  096%=      5-min Rain = 0
KMC1 201210Z 07002KT M04/M05 A3034 RMK A01 T10441050  RH  096%=      5-min Rain = 0
KMC1 201211Z 08002KT M04/M05 A3034 RMK A01 T10441050  RH  096%=      5-min Rain = 0
KMC1 201212Z 08002KT M04/M05 A3034 RMK A01 T10441050  RH  096%=      5-min Rain = 0
KMC1 201213Z 08003KT M04/M05 A3034 RMK A01 T10441050  RH  096%=      5-min Rain = 0
KMC1 201214Z 08002KT M05/M05 A3034 RMK A01 T10451051  RH  096%=      5-min Rain = 0
KMC1 201215Z 07002KT M05/M05 A3034 RMK A01 T10451050  RH  096%=      5-min Rain = 0
KMC1 201216Z 07002KT M05/M05 A3034 RMK A01 T10451051  RH  096%=      5-min Rain = 0
KMC1 201217Z 08002KT M05/M05 A3034 RMK A01 T10451051  RH  096%=      5-min Rain = 0
KMC1 201218Z 09002KT M05/M05 A3034 RMK A01 T10451051  RH  096%=      5-min Rain = 0
KMC1 201219Z 09002KT M05/M05 A3034 RMK A01 T10451050  RH  096%=      5-min Rain = 0
KMC1 201220Z 10002KT M04/M05 A3034 RMK A01 T10441050  RH  096%=      5-min Rain = 0
KMC1 201221Z 10002KT M05/M05 A3034 RMK A01 T10451051  RH  096%=      5-min Rain = 0
KMC1 201222Z 09002KT M05/M05 A3034 RMK A01 T10451051  RH  096%=      5-min Rain = 0
KMC1 201223Z 09002KT M05/M05 A3034 RMK A01 T10461052  RH  096%=      5-min Rain = 0
KMC1 201224Z 09003KT M05/M05 A3034 RMK A01 T10461051  RH  096%=      5-min Rain = 0
KMC1 201225Z 10003KT M05/M05 A3034 RMK A01 T10451050  RH  096%=      5-min Rain = 0
KMC1 201226Z 10002KT M05/M05 A3034 RMK A01 T10451050  RH  096%=      5-min Rain = 0
KMC1 201227Z 10001KT M05/M05 A3034 RMK A01 T10451050  RH  096%=      5-min Rain = 0
KMC1 201228Z 09001KT M05/M05 A3034 RMK A01 T10451050  RH  096%=      5-min Rain = 0
KMC1 201229Z 09001KT M05/M05 A3034 RMK A01 T10451051  RH  096%=      5-min Rain = 0
KMC1 201230Z 11002KT M05/M05 A3034 RMK A01 T10451051  RH  096%=      5-min Rain = 0
KMC1 201231Z 10001KT M05/M05 A3034 RMK A01 T10451051  RH  096%=      5-min Rain = 0
KMC1 201232Z 10001KT M05/M05 A3034 RMK A01 T10451051  RH  096%=      5-min Rain = 0
KMC1 201233Z 10001KT M05/M05 A3034 RMK A01 T10461052  RH  096%=      5-min Rain = 0
KMC1 201234Z 10001KT M05/M05 A3034 RMK A01 T10461052  RH  095%=      5-min Rain = 0
KMC1 201235Z 09001KT M05/M05 A3034 RMK A01 T10461052  RH  096%=      5-min Rain = 0
KMC1 201236Z 08001KT M05/M05 A3034 RMK A01 T10451050  RH  096%=      5-min Rain = 0
KMC1 201237Z 08000KT M04/M05 A3034 RMK A01 T10431048  RH  096%=      5-min Rain = 0
KMC1 201238Z 00000KT M04/M05 A3034 RMK A01 T10431048  RH  096%=      5-min Rain = 0
KMC1 201239Z 00000KT M04/M05 A3034 RMK A01 T10431049  RH  096%=      5-min Rain = 0
KMC1 201240Z 00000KT M04/M05 A3034 RMK A01 T10441050  RH  095%=      5-min Rain = 0
KMC1 201241Z 00000KT M04/M05 A3034 RMK A01 T10441050  RH  095%=      5-min Rain = 0
KMC1 201242Z 00000KT M04/M05 A3034 RMK A01 T10441051  RH  095%=      5-min Rain = 0
KMC1 201243Z 00000KT M04/M05 A3034 RMK A01 T10441051  RH  095%=      5-min Rain = 0
KMC1 201244Z 00000KT M04/M05 A3034 RMK A01 T10441052  RH  095%=      5-min Rain = 0
KMC1 201245Z 06001KT M05/M05 A3034 RMK A01 T10451052  RH  095%=      5-min Rain = 0
KMC1 201246Z 05001KT M05/M05 A3034 RMK A01 T10451052  RH  095%=      5-min Rain = 0
KMC1 201247Z 05001KT M05/M05 A3034 RMK A01 T10451052  RH  095%=      5-min Rain = 0
KMC1 201248Z 05000KT M04/M05 A3034 RMK A01 T10441051  RH  095%=      5-min Rain = 0
KMC1 201249Z 00000KT M04/M05 A3034 RMK A01 T10441051  RH  095%=      5-min Rain = 0
KMC1 201250Z 00000KT M05/M05 A3034 RMK A01 T10451052  RH  095%=      5-min Rain = 0
KMC1 201251Z 00000KT M05/M05 A3034 RMK A01 T10461053  RH  095%=      5-min Rain = 0
KMC1 201252Z 00000KT M05/M05 A3034 RMK A01 T10461054  RH  094%=      5-min Rain = 0
KMC1 201253Z 00000KT M05/M05 A3034 RMK A01 T10471054  RH  094%=      5-min Rain = 0
KMC1 201254Z 00000KT M05/M05 A3034 RMK A01 T10461054  RH  095%=      5-min Rain = 0
KMC1 201255Z 00000KT M05/M05 A3034 RMK A01 T10461054  RH  095%=      5-min Rain = 0
KMC1 201256Z 00000KT M05/M05 A3034 RMK A01 T10461053  RH  095%=      5-min Rain = 0
KMC1 201257Z 00000KT M05/M05 A3034 RMK A01 T10471054  RH  095%=      5-min Rain = 0
KMC1 201258Z 00000KT M05/M05 A3034 RMK A01 T10461054  RH  095%=      5-min Rain = 0
KMC1 201259Z 00000KT M05/M05 A3034 RMK A01 T10471054  RH  095%=      5-min Rain = 0
KMC1 201300Z 00000KT M05/M05 A3034 RMK A01 T10471054  RH  095%=      5-min Rain = 0
KMC1 201301Z 00000KT M05/M05 A3034 RMK A01 T10471054  RH  095%=      5-min Rain = 0
KMC1 201302Z 00000KT M05/M05 A3034 RMK A01 T10471054  RH  095%=      5-min Rain = 0
KMC1 201303Z 05000KT M05/M05 A3034 RMK A01 T10471054  RH  095%=      5-min Rain = 0
KMC1 201304Z 05001KT M05/M06 A3034 RMK A01 T10481055  RH  095%=      5-min Rain = 0
KMC1 201305Z 05001KT M05/M06 A3034 RMK A01 T10481055  RH  095%=      5-min Rain = 0
KMC1 201306Z 05000KT M05/M06 A3034 RMK A01 T10481055  RH  095%=      5-min Rain = 0
KMC1 201307Z 05001KT M05/M06 A3034 RMK A01 T10481055  RH  095%=      5-min Rain = 0
KMC1 201308Z 05001KT M05/M06 A3034 RMK A01 T10481055  RH  095%=      5-min Rain = 0
KMC1 201309Z 05001KT M05/M06 A3034 RMK A01 T10491055  RH  095%=      5-min Rain = 0
KMC1 201310Z 05001KT M05/M06 A3034 RMK A01 T10481055  RH  095%=      5-min Rain = 0
KMC1 201311Z 05000KT M05/M05 A3034 RMK A01 T10481054  RH  095%=      5-min Rain = 0
KMC1 201312Z 00000KT M05/M05 A3034 RMK A01 T10481054  RH  096%=      5-min Rain = 0
KMC1 201313Z 00000KT M05/M05 A3034 RMK A01 T10481054  RH  096%=      5-min Rain = 0
KMC1 201314Z 05000KT M05/M05 A3034 RMK A01 T10481054  RH  096%=      5-min Rain = 0
KMC1 201315Z 05001KT M05/M05 A3034 RMK A01 T10471053  RH  096%=      5-min Rain = 0
KMC1 201316Z 05001KT M05/M05 A3034 RMK A01 T10471053  RH  096%=      5-min Rain = 0
KMC1 201317Z 05001KT M05/M05 A3034 RMK A01 T10471053  RH  096%=      5-min Rain = 0
KMC1 201318Z 05001KT M05/M05 A3034 RMK A01 T10471053  RH  096%=      5-min Rain = 0
KMC1 201319Z 05000KT M05/M05 A3034 RMK A01 T10471053  RH  096%=      5-min Rain = 0
KMC1 201320Z 04001KT M05/M05 A3034 RMK A01 T10471053  RH  096%=      5-min Rain = 0
KMC1 201321Z 25002KT M05/M05 A3034 RMK A01 T10471053  RH  096%=      5-min Rain = 0
KMC1 201322Z 25002KT M05/M05 A3034 RMK A01 T10471053  RH  096%=      5-min Rain = 0
KMC1 201323Z 25002KT M05/M05 A3035 RMK A01 T10471053  RH  095%=      5-min Rain = 0
KMC1 201324Z 25001KT M05/M05 A3035 RMK A01 T10471053  RH  095%=      5-min Rain = 0
KMC1 201325Z 26001KT M05/M05 A3035 RMK A01 T10471053  RH  095%=      5-min Rain = 0
KMC1 201326Z 26002KT M05/M05 A3035 RMK A01 T10471053  RH  095%=      5-min Rain = 0
KMC1 201327Z 26002KT M05/M05 A3035 RMK A01 T10471053  RH  095%=      5-min Rain = 0
KMC1 201328Z 26002KT M05/M05 A3035 RMK A01 T10471053  RH  095%=      5-min Rain = 0
KMC1 201329Z 26002KT M05/M05 A3035 RMK A01 T10471053  RH  095%=      5-min Rain = 0
KMC1 201330Z 27002KT M05/M05 A3035 RMK A01 T10471054  RH  095%=      5-min Rain = 0
KMC1 201331Z 27002KT M05/M05 A3035 RMK A01 T10471054  RH  095%=      5-min Rain = 0
KMC1 201332Z 27002KT M05/M05 A3035 RMK A01 T10471054  RH  095%=      5-min Rain = 0
KMC1 201333Z 27002KT M05/M05 A3035 RMK A01 T10471054  RH  095%=      5-min Rain = 0
KMC1 201334Z 26002KT M05/M05 A3035 RMK A01 T10471054  RH  095%=      5-min Rain = 0
KMC1 201335Z 26003KT M05/M05 A3035 RMK A01 T10471054  RH  095%=      5-min Rain = 0
KMC1 201336Z 26003KT M05/M06 A3035 RMK A01 T10471055  RH  094%=      5-min Rain = 0
KMC1 201337Z 26002KT M05/M06 A3035 RMK A01 T10471055  RH  094%=      5-min Rain = 0
KMC1 201338Z 26002KT M05/M06 A3035 RMK A01 T10471056  RH  094%=      5-min Rain = 0
KMC1 201339Z 27002KT M05/M06 A3035 RMK A01 T10481056  RH  094%=      5-min Rain = 0
KMC1 201340Z 27002KT M05/M06 A3035 RMK A01 T10481056  RH  094%=      5-min Rain = 0
KMC1 201341Z 26002KT M05/M06 A3035 RMK A01 T10481057  RH  094%=      5-min Rain = 0
KMC1 201342Z 24002KT M05/M06 A3035 RMK A01 T10481057  RH  094%=      5-min Rain = 0
KMC1 201343Z 24001KT M05/M06 A3035 RMK A01 T10481057  RH  094%=      5-min Rain = 0
KMC1 201344Z 24000KT M05/M06 A3035 RMK A01 T10491057  RH  094%=      5-min Rain = 0
KMC1 201345Z 00000KT M05/M06 A3035 RMK A01 T10491058  RH  094%=      5-min Rain = 0
KMC1 201346Z 00000KT M05/M06 A3035 RMK A01 T10491058  RH  093%=      5-min Rain = 0
KMC1 201347Z 00000KT M05/M06 A3035 RMK A01 T10491058  RH  093%=      5-min Rain = 0
KMC1 201348Z 00000KT M05/M06 A3035 RMK A01 T10491058  RH  093%=      5-min Rain = 0
KMC1 201349Z 00000KT M05/M06 A3035 RMK A01 T10491058  RH  093%=      5-min Rain = 0
KMC1 201350Z 00000KT M05/M06 A3035 RMK A01 T10481057  RH  093%=      5-min Rain = 0
KMC1 201351Z 00000KT M05/M06 A3035 RMK A01 T10481057  RH  093%=      5-min Rain = 0
KMC1 201352Z 00000KT M05/M06 A3035 RMK A01 T10471056  RH  094%=      5-min Rain = 0
KMC1 201353Z 00000KT M05/M06 A3035 RMK A01 T10471055  RH  094%=      5-min Rain = 0
KMC1 201354Z 00000KT M05/M06 A3035 RMK A01 T10461055  RH  094%=      5-min Rain = 0
KMC1 201355Z 00000KT M05/M05 A3034 RMK A01 T10451054  RH  094%=      5-min Rain = 0
KMC1 201356Z 00000KT M04/M05 A3034 RMK A01 T10441052  RH  094%=      5-min Rain = 0
KMC1 201357Z 00000KT M04/M05 A3035 RMK A01 T10431052  RH  094%=      5-min Rain = 0
KMC1 201358Z 00000KT M04/M05 A3035 RMK A01 T10421052  RH  093%=      5-min Rain = 0
KMC1 201359Z 24000KT M04/M05 A3035 RMK A01 T10421052  RH  093%=      5-min Rain = 0
KMC1 201400Z 24000KT M04/M05 A3035 RMK A01 T10421053  RH  092%=      5-min Rain = 0
KMC1 201401Z 24000KT M04/M05 A3035 RMK A01 T10411053  RH  092%=      5-min Rain = 0
KMC1 201402Z 24000KT M04/M05 A3035 RMK A01 T10411053  RH  091%=      5-min Rain = 0
KMC1 201403Z 24000KT M04/M05 A3035 RMK A01 T10401053  RH  091%=      5-min Rain = 0
KMC1 201404Z 00000KT M04/M05 A3035 RMK A01 T10391052  RH  091%=      5-min Rain = 0
KMC1 201405Z 24000KT M04/M05 A3035 RMK A01 T10381051  RH  091%=      5-min Rain = 0
KMC1 201406Z 32001KT M04/M05 A3035 RMK A01 T10381051  RH  091%=      5-min Rain = 0
KMC1 201407Z 02001KT M04/M05 A3035 RMK A01 T10371050  RH  091%=      5-min Rain = 0
KMC1 201408Z 02001KT M04/M05 A3035 RMK A01 T10371050  RH  091%=      5-min Rain = 0
KMC1 201409Z 02000KT M04/M05 A3035 RMK A01 T10361049  RH  091%=      5-min Rain = 0
KMC1 201410Z 02000KT M04/M05 A3035 RMK A01 T10351048  RH  091%=      5-min Rain = 0
KMC1 201411Z 36001KT M03/M05 A3035 RMK A01 T10341047  RH  091%=      5-min Rain = 0
KMC1 201412Z 35001KT M03/M05 A3035 RMK A01 T10341047  RH  090%=      5-min Rain = 0
KMC1 201413Z 34001KT M03/M05 A3035 RMK A01 T10331047  RH  090%=      5-min Rain = 0
KMC1 201414Z 34000KT M03/M05 A3035 RMK A01 T10321046  RH  090%=      5-min Rain = 0
KMC1 201415Z 00000KT M03/M04 A3035 RMK A01 T10301044  RH  090%=      5-min Rain = 0
KMC1 201416Z 00000KT M03/M04 A3035 RMK A01 T10291043  RH  090%=      5-min Rain = 0
KMC1 201417Z 00000KT M03/M04 A3035 RMK A01 T10271042  RH  089%=      5-min Rain = 0
KMC1 201418Z 00000KT M03/M04 A3035 RMK A01 T10261042  RH  089%=      5-min Rain = 0
KMC1 201419Z 00000KT M03/M04 A3035 RMK A01 T10251041  RH  088%=      5-min Rain = 0
KMC1 201420Z 00000KT M02/M04 A3035 RMK A01 T10231041  RH  088%=      5-min Rain = 0
KMC1 201421Z 00000KT M02/M04 A3035 RMK A01 T10221042  RH  086%=      5-min Rain = 0
KMC1 201422Z 00000KT M02/M05 A3035 RMK A01 T10231045  RH  085%=      5-min Rain = 0
KMC1 201423Z 00000KT M02/M05 A3035 RMK A01 T10231046  RH  084%=      5-min Rain = 0
KMC1 201424Z 00000KT M02/M05 A3034 RMK A01 T10221045  RH  085%=      5-min Rain = 0
KMC1 201425Z 00000KT M02/M04 A3034 RMK A01 T10211043  RH  085%=      5-min Rain = 0
KMC1 201426Z 00000KT M02/M04 A3034 RMK A01 T10201041  RH  086%=      5-min Rain = 0
KMC1 201427Z 00000KT M02/M04 A3034 RMK A01 T10191040  RH  085%=      5-min Rain = 0
KMC1 201428Z 00000KT M02/M04 A3034 RMK A01 T10191041  RH  085%=      5-min Rain = 0
KMC1 201429Z 00000KT M02/M04 A3034 RMK A01 T10191043  RH  084%=      5-min Rain = 0
KMC1 201430Z 00000KT M02/M04 A3034 RMK A01 T10201043  RH  084%=      5-min Rain = 0
KMC1 201431Z 00000KT M02/M04 A3034 RMK A01 T10201043  RH  084%=      5-min Rain = 0
KMC1 201432Z 00000KT M02/M04 A3034 RMK A01 T10201044  RH  084%=      5-min Rain = 0
KMC1 201433Z 00000KT M02/M05 A3034 RMK A01 T10201045  RH  083%=      5-min Rain = 0
KMC1 201434Z 26000KT M02/M05 A3034 RMK A01 T10211046  RH  083%=      5-min Rain = 0
KMC1 201435Z 24000KT M02/M05 A3034 RMK A01 T10211046  RH  083%=      5-min Rain = 0
KMC1 201436Z 24000KT M02/M04 A3034 RMK A01 T10211044  RH  085%=      5-min Rain = 0
KMC1 201437Z 24000KT M02/M04 A3034 RMK A01 T10211043  RH  085%=      5-min Rain = 0
KMC1 201438Z 23001KT M02/M04 A3034 RMK A01 T10211043  RH  085%=      5-min Rain = 0
KMC1 201439Z 22001KT M02/M04 A3034 RMK A01 T10211044  RH  084%=      5-min Rain = 0
KMC1 201440Z 23001KT M02/M04 A3034 RMK A01 T10201044  RH  084%=      5-min Rain = 0
KMC1 201441Z 23000KT M02/M04 A3034 RMK A01 T10201044  RH  084%=      5-min Rain = 0
KMC1 201442Z 00000KT M02/M04 A3034 RMK A01 T10191042  RH  084%=      5-min Rain = 0
KMC1 201443Z 24000KT M02/M04 A3034 RMK A01 T10171040  RH  085%=      5-min Rain = 0
KMC1 201444Z 24001KT M02/M04 A3034 RMK A01 T10161040  RH  084%=      5-min Rain = 0
KMC1 201445Z 24000KT M02/M04 A3034 RMK A01 T10161041  RH  083%=      5-min Rain = 0
KMC1 201446Z 23000KT M02/M04 A3034 RMK A01 T10151040  RH  083%=      5-min Rain = 0
KMC1 201447Z 23001KT M02/M04 A3034 RMK A01 T10151039  RH  083%=      5-min Rain = 0
KMC1 201448Z 23001KT M02/M04 A3034 RMK A01 T10151040  RH  083%=      5-min Rain = 0
KMC1 201449Z 24000KT M01/M04 A3034 RMK A01 T10141039  RH  083%=      5-min Rain = 0
KMC1 201450Z 24000KT M01/M04 A3034 RMK A01 T10131038  RH  083%=      5-min Rain = 0
KMC1 201451Z 27000KT M01/M04 A3034 RMK A01 T10131038  RH  083%=      5-min Rain = 0
KMC1 201452Z 27000KT M01/M04 A3034 RMK A01 T10121038  RH  083%=      5-min Rain = 0
KMC1 201453Z 00000KT M01/M04 A3034 RMK A01 T10121039  RH  082%=      5-min Rain = 0
KMC1 201454Z 00000KT M01/M04 A3034 RMK A01 T10111039  RH  082%=      5-min Rain = 0
KMC1 201455Z 00000KT M01/M04 A3034 RMK A01 T10101035  RH  083%=      5-min Rain = 0
KMC1 201456Z 00000KT M01/M03 A3034 RMK A01 T10091034  RH  084%=      5-min Rain = 0
KMC1 201457Z 00000KT M01/M03 A3034 RMK A01 T10081033  RH  084%=      5-min Rain = 0
KMC1 201458Z 23000KT M01/M03 A3034 RMK A01 T10071032  RH  083%=      5-min Rain = 0
KMC1 201459Z 21001KT M01/M03 A3034 RMK A01 T10071034  RH  082%=      5-min Rain = 0
KMC1 201500Z 21001KT M01/M04 A3034 RMK A01 T10071038  RH  079%=      5-min Rain = 0
KMC1 201501Z 23001KT M01/M04 A3034 RMK A01 T10061038  RH  079%=      5-min Rain = 0
KMC1 201502Z 25002KT M01/M04 A3034 RMK A01 T10051037  RH  079%=      5-min Rain = 0
KMC1 201503Z 26000KT M00/M04 A3034 RMK A01 T10041036  RH  079%=      5-min Rain = 0
KMC1 201504Z 26000KT M00/M03 A3034 RMK A01 T10031033  RH  080%=      5-min Rain = 0
KMC1 201505Z 22000KT M00/M03 A3034 RMK A01 T10011032  RH  080%=      5-min Rain = 0
KMC1 201506Z 31000KT 00/03 A3034 RMK A01 T00000-34  RH  078%=      5-min Rain = 0
KMC1 201507Z 32001KT 00/M04 A3034 RMK A01 T00011036  RH  076%=      5-min Rain = 0
KMC1 201508Z 32001KT 00/M03 A3034 RMK A01 T00021034  RH  077%=      5-min Rain = 0
KMC1 201509Z 30001KT 00/M03 A3034 RMK A01 T00031032  RH  077%=      5-min Rain = 0
KMC1 201510Z 29001KT 00/M04 A3034 RMK A01 T00031035  RH  076%=      5-min Rain = 0
KMC1 201511Z 27002KT 00/M04 A3034 RMK A01 T00041035  RH  075%=      5-min Rain = 0
KMC1 201512Z 26002KT 01/M04 A3034 RMK A01 T00051035  RH  075%=      5-min Rain = 0
KMC1 201513Z 24000KT 01/M04 A3034 RMK A01 T00051035  RH  075%=      5-min Rain = 0
KMC1 201514Z 24000KT 01/M03 A3034 RMK A01 T00061033  RH  075%=      5-min Rain = 0
KMC1 201515Z 23001KT 01/M03 A3034 RMK A01 T00081031  RH  075%=      5-min Rain = 0
KMC1 201516Z 22000KT 01/M03 A3034 RMK A01 T00091034  RH  073%=      5-min Rain = 0
KMC1 201517Z 00000KT 01/M03 A3034 RMK A01 T00101029  RH  075%=      5-min Rain = 0
KMC1 201518Z 30001KT 01/M02 A3034 RMK A01 T00131024  RH  076%=      5-min Rain = 0
KMC1 201519Z 33001KT 01/M02 A3034 RMK A01 T00141024  RH  076%=      5-min Rain = 0
KMC1 201520Z 34001KT 02/M03 A3034 RMK A01 T00151025  RH  074%=      5-min Rain = 0
KMC1 201521Z 33001KT 02/M03 A3034 RMK A01 T00161027  RH  073%=      5-min Rain = 0
KMC1 201522Z 30001KT 02/M03 A3034 RMK A01 T00171026  RH  073%=      5-min Rain = 0
KMC1 201523Z 30001KT 02/M03 A3034 RMK A01 T00181028  RH  072%=      5-min Rain = 0
KMC1 201524Z 29001KT 02/M03 A3034 RMK A01 T00181026  RH  073%=      5-min Rain = 0
KMC1 201525Z 30000KT 02/M02 A3034 RMK A01 T00191024  RH  073%=      5-min Rain = 0
KMC1 201526Z 00000KT 02/M02 A3034 RMK A01 T00201023  RH  073%=      5-min Rain = 0
KMC1 201527Z 27001KT 02/M02 A3034 RMK A01 T00221023  RH  072%=      5-min Rain = 0
KMC1 201528Z 28002KT 02/M02 A3034 RMK A01 T00231024  RH  071%=      5-min Rain = 0
KMC1 201529Z 29001KT 02/M02 A3034 RMK A01 T00241024  RH  071%=      5-min Rain = 0
KMC1 201530Z 00000KT 03/M03 A3034 RMK A01 T00251027  RH  068%=      5-min Rain = 0
KMC1 201531Z 29000KT 03/M03 A3034 RMK A01 T00261025  RH  069%=      5-min Rain = 0
KMC1 201532Z 29001KT 03/M02 A3034 RMK A01 T00271023  RH  070%=      5-min Rain = 0
KMC1 201533Z 30001KT 03/M03 A3034 RMK A01 T00271025  RH  068%=      5-min Rain = 0
KMC1 201534Z 27000KT 03/M02 A3034 RMK A01 T00281024  RH  069%=      5-min Rain = 0
KMC1 201535Z 27002KT 03/M03 A3034 RMK A01 T00291025  RH  068%=      5-min Rain = 0
KMC1 201536Z 27001KT 03/M03 A3034 RMK A01 T00291026  RH  067%=      5-min Rain = 0
KMC1 201537Z 32000KT 03/M03 A3034 RMK A01 T00291027  RH  067%=      5-min Rain = 0
KMC1 201538Z 31001KT 03/M02 A3034 RMK A01 T00301024  RH  067%=      5-min Rain = 0
KMC1 201539Z 28002KT 03/M02 A3034 RMK A01 T00321022  RH  068%=      5-min Rain = 0
KMC1 201540Z 27002KT 03/M03 A3035 RMK A01 T00331025  RH  066%=      5-min Rain = 0
KMC1 201541Z 28001KT 03/M03 A3034 RMK A01 T00331029  RH  064%=      5-min Rain = 0
KMC1 201542Z 30000KT 03/M03 A3034 RMK A01 T00331026  RH  065%=      5-min Rain = 0
KMC1 201543Z 00000KT 04/M03 A3034 RMK A01 T00351027  RH  064%=      5-min Rain = 0
KMC1 201544Z 26001KT 04/M03 A3034 RMK A01 T00361025  RH  064%=      5-min Rain = 0
KMC1 201545Z 26000KT 04/M03 A3034 RMK A01 T00381025  RH  064%=      5-min Rain = 0
KMC1 201546Z 25000KT 04/M02 A3034 RMK A01 T00391023  RH  064%=      5-min Rain = 0
KMC1 201547Z 27000KT 04/M02 A3034 RMK A01 T00401023  RH  063%=      5-min Rain = 0
KMC1 201548Z 30001KT 04/M02 A3034 RMK A01 T00411022  RH  063%=      5-min Rain = 0
KMC1 201549Z 27001KT 04/M02 A3034 RMK A01 T00421023  RH  063%=      5-min Rain = 0
KMC1 201550Z 27000KT 04/M02 A3034 RMK A01 T00431018  RH  064%=      5-min Rain = 0
KMC1 201551Z 28001KT 04/M02 A3034 RMK A01 T00441022  RH  062%=      5-min Rain = 0
KMC1 201552Z 27001KT 04/M03 A3034 RMK A01 T00441025  RH  061%=      5-min Rain = 0
KMC1 201553Z 27000KT 04/M02 A3034 RMK A01 T00431024  RH  062%=      5-min Rain = 0
KMC1 201554Z 29000KT 05/M02 A3034 RMK A01 T00451017  RH  064%=      5-min Rain = 0
KMC1 201555Z 28001KT 05/M02 A3034 RMK A01 T00471018  RH  063%=      5-min Rain = 0
KMC1 201556Z 28002KT 05/M02 A3034 RMK A01 T00481021  RH  061%=      5-min Rain = 0
KMC1 201557Z 29002KT 05/M02 A3034 RMK A01 T00491018  RH  062%=      5-min Rain = 0
KMC1 201558Z 28002KT 05/M02 A3034 RMK A01 T00501020  RH  061%=      5-min Rain = 0
KMC1 201559Z 29002KT 05/M02 A3034 RMK A01 T00511018  RH  061%=      5-min Rain = 0
KMC1 201600Z 29002KT 05/M02 A3034 RMK A01 T00511021  RH  060%=      5-min Rain = 0
KMC1 201601Z 28001KT 05/M02 A3035 RMK A01 T00511021  RH  060%=      5-min Rain = 0
KMC1 201602Z 31001KT 05/M02 A3035 RMK A01 T00531019  RH  060%=      5-min Rain = 0
KMC1 201603Z 29001KT 05/M02 A3035 RMK A01 T00541020  RH  059%=      5-min Rain = 0
KMC1 201604Z 31001KT 05/M02 A3035 RMK A01 T00541022  RH  058%=      5-min Rain = 0
KMC1 201605Z 28002KT 06/M02 A3035 RMK A01 T00561019  RH  059%=      5-min Rain = 0
KMC1 201606Z 27002KT 06/M02 A3035 RMK A01 T00561019  RH  059%=      5-min Rain = 0
KMC1 201607Z 26002KT 06/M02 A3035 RMK A01 T00571019  RH  058%=      5-min Rain = 0
KMC1 201608Z 25001KT 06/M02 A3035 RMK A01 T00571020  RH  058%=      5-min Rain = 0
KMC1 201609Z 28001KT 06/M02 A3035 RMK A01 T00571022  RH  057%=      5-min Rain = 0
KMC1 201610Z 27003KT 06/M02 A3035 RMK A01 T00581018  RH  058%=      5-min Rain = 0
KMC1 201611Z 29002KT 06/M02 A3035 RMK A01 T00601016  RH  058%=      5-min Rain = 0
KMC1 201612Z 27001KT 06/M02 A3035 RMK A01 T00611019  RH  057%=      5-min Rain = 0
KMC1 201613Z 27003KT 06/M02 A3035 RMK A01 T00621019  RH  056%=      5-min Rain = 0
KMC1 201614Z 25002KT 06/M02 A3035 RMK A01 T00631017  RH  056%=      5-min Rain = 0
KMC1 201615Z 26001KT 06/M02 A3035 RMK A01 T00631023  RH  054%=      5-min Rain = 0
KMC1 201616Z 27001KT 06/M02 A3035 RMK A01 T00641018  RH  056%=      5-min Rain = 0
KMC1 201617Z 25003KT 07/M02 A3035 RMK A01 T00651019  RH  055%=      5-min Rain = 0
KMC1 201618Z 25003KT 07/M02 A3035 RMK A01 T00661019  RH  055%=      5-min Rain = 0
KMC1 201619Z 25003KT 07/M02 A3035 RMK A01 T00671017  RH  055%=      5-min Rain = 0
KMC1 201620Z 24003KT 07/M02 A3035 RMK A01 T00701017  RH  054%=      5-min Rain = 0
KMC1 201621Z 23002KT 07/M02 A3035 RMK A01 T00711017  RH  053%=      5-min Rain = 0
KMC1 201622Z 19003KT 07/M02 A3035 RMK A01 T00731019  RH  052%=      5-min Rain = 0
KMC1 201623Z 20002KT 08/M02 A3034 RMK A01 T00761016  RH  052%=      5-min Rain = 0
KMC1 201624Z 18002KT 08/M02 A3034 RMK A01 T00791016  RH  051%=      5-min Rain = 0
KMC1 201625Z 22002KT 08/M02 A3034 RMK A01 T00801016  RH  050%=      5-min Rain = 0
KMC1 201626Z 21001KT 08/M02 A3035 RMK A01 T00821018  RH  050%=      5-min Rain = 0
KMC1 201627Z 22002KT 08/M02 A3035 RMK A01 T00841016  RH  049%=      5-min Rain = 0
KMC1 201628Z 25002KT 09/M02 A3035 RMK A01 T00861015  RH  049%=      5-min Rain = 0
KMC1 201629Z 23001KT 09/M02 A3035 RMK A01 T00861016  RH  049%=      5-min Rain = 0
KMC1 201630Z 21002KT 09/M01 A3035 RMK A01 T00861014  RH  049%=      5-min Rain = 0
KMC1 201631Z 21003KT 09/M02 A3035 RMK A01 T00881018  RH  047%=      5-min Rain = 0
KMC1 201632Z 19004KT 09/M02 A3035 RMK A01 T00911017  RH  047%=      5-min Rain = 0
KMC1 201633Z 17003KT 09/M02 A3035 RMK A01 T00921021  RH  045%=      5-min Rain = 0
KMC1 201634Z 17003KT 09/M02 A3035 RMK A01 T00921021  RH  045%=      5-min Rain = 0
KMC1 201635Z 17003KT 09/M02 A3034 RMK A01 T00941021  RH  044%=      5-min Rain = 0
KMC1 201636Z 17002KT 09/M02 A3034 RMK A01 T00941021  RH  044%=      5-min Rain = 0
KMC1 201637Z 17003KT 10/M02 A3034 RMK A01 T00951021  RH  044%=      5-min Rain = 0
KMC1 201638Z 18002KT 10/M02 A3034 RMK A01 T00961022  RH  044%=      5-min Rain = 0
KMC1 201639Z 16002KT 10/M02 A3034 RMK A01 T00961023  RH  043%=      5-min Rain = 0
KMC1 201640Z 16001KT 10/M02 A3034 RMK A01 T00961017  RH  045%=      5-min Rain = 0
KMC1 201641Z 19003KT 10/M01 A3034 RMK A01 T01001014  RH  045%=      5-min Rain = 0
KMC1 201642Z 18003KT 10/M02 A3034 RMK A01 T01031018  RH  043%=      5-min Rain = 0
KMC1 201643Z 18004KT 10/M02 A3034 RMK A01 T01031021  RH  042%=      5-min Rain = 0
KMC1 201644Z 16002KT 10/M02 A3034 RMK A01 T01041020  RH  042%=      5-min Rain = 0
KMC1 201645Z 19004KT 11/M02 A3034 RMK A01 T01061016  RH  042%=      5-min Rain = 0
KMC1 201646Z 18003KT 11/M02 A3034 RMK A01 T01071021  RH  041%=      5-min Rain = 0
KMC1 201647Z 17006KT 11/M02 A3034 RMK A01 T01081021  RH  041%=      5-min Rain = 0
KMC1 201648Z 16005KT 11/M02 A3034 RMK A01 T01081021  RH  041%=      5-min Rain = 0
KMC1 201649Z 15005KT 11/M02 A3034 RMK A01 T01081023  RH  040%=      5-min Rain = 0
KMC1 201650Z 16005KT 11/M02 A3034 RMK A01 T01081019  RH  041%=      5-min Rain = 0
KMC1 201651Z 17006KT 11/M02 A3034 RMK A01 T01091022  RH  040%=      5-min Rain = 0
KMC1 201652Z 17005KT 11/M02 A3034 RMK A01 T01081024  RH  039%=      5-min Rain = 0
KMC1 201653Z 18004KT 11/M03 A3034 RMK A01 T01081025  RH  039%=      5-min Rain = 0
KMC1 201654Z 16003KT 11/M02 A3034 RMK A01 T01071024  RH  040%=      5-min Rain = 0
KMC1 201655Z 19002KT 11/M02 A3034 RMK A01 T01071020  RH  041%=      5-min Rain = 0
KMC1 201656Z 18003KT 11/M02 A3034 RMK A01 T01091017  RH  041%=      5-min Rain = 0
KMC1 201657Z 15004KT 11/M02 A3034 RMK A01 T01111019  RH  040%=      5-min Rain = 0
KMC1 201658Z 13005KT 11/M02 A3034 RMK A01 T01121019  RH  040%=      5-min Rain = 0
KMC1 201659Z 14005KT 11/M02 A3034 RMK A01 T01131022  RH  039%=      5-min Rain = 0
KMC1 201700Z 14005KT 11/M03 A3034 RMK A01 T01121025  RH  038%=      5-min Rain = 0
KMC1 201701Z 16006KT 11/M02 A3034 RMK A01 T01111023  RH  039%=      5-min Rain = 0
KMC1 201702Z 17006KT 11/M02 A3034 RMK A01 T01111021  RH  040%=      5-min Rain = 0
KMC1 201703Z 17004KT 11/M03 A3033 RMK A01 T01111025  RH  039%=      5-min Rain = 0
KMC1 201704Z 17003KT 11/M03 A3033 RMK A01 T01101025  RH  039%=      5-min Rain = 0
KMC1 201705Z 16002KT 11/M02 A3033 RMK A01 T01101019  RH  041%=      5-min Rain = 0
KMC1 201706Z 14005KT 11/M02 A3033 RMK A01 T01131016  RH  041%=      5-min Rain = 0
KMC1 201707Z 17004KT 12/M02 A3033 RMK A01 T01151017  RH  040%=      5-min Rain = 0
KMC1 201708Z 15003KT 12/M02 A3033 RMK A01 T01161018  RH  039%=      5-min Rain = 0
KMC1 201709Z 18004KT 12/M02 A3033 RMK A01 T01171017  RH  039%=      5-min Rain = 0
KMC1 201710Z 18003KT 12/M02 A3033 RMK A01 T01181018  RH  039%=      5-min Rain = 0
KMC1 201711Z 15004KT 12/M02 A3033 RMK A01 T01181016  RH  039%=      5-min Rain = 0
KMC1 201712Z 16005KT 12/M02 A3033 RMK A01 T01191017  RH  039%=      5-min Rain = 0
KMC1 201713Z 16005KT 12/M02 A3033 RMK A01 T01201015  RH  039%=      5-min Rain = 0
KMC1 201714Z 16005KT 12/M01 A3033 RMK A01 T01221012  RH  039%=      5-min Rain = 0
KMC1 201715Z 18006KT 12/M01 A3033 RMK A01 T01241012  RH  039%=      5-min Rain = 0
KMC1 201716Z 18006KT 13/M02 A3033 RMK A01 T01251016  RH  038%=      5-min Rain = 0
KMC1 201717Z 20006KT 12/M02 A3033 RMK A01 T01241016  RH  038%=      5-min Rain = 0
KMC1 201718Z 18005KT 12/M02 A3033 RMK A01 T01241017  RH  038%=      5-min Rain = 0
KMC1 201719Z 18005KT 12/M02 A3033 RMK A01 T01241015  RH  038%=      5-min Rain = 0
KMC1 201720Z 19006KT 13/M01 A3033 RMK A01 T01261011  RH  039%=      5-min Rain = 0
KMC1 201721Z 18006KT 13/M01 A3033 RMK A01 T01281012  RH  038%=      5-min Rain = 0
KMC1 201722Z 19003KT 13/M01 A3033 RMK A01 T01301010  RH  038%=      5-min Rain = 0
KMC1 201723Z 19005KT 13/M01 A3033 RMK A01 T01311010  RH  038%=      5-min Rain = 0
KMC1 201724Z 22004KT 13/M01 A3033 RMK A01 T01331010  RH  037%=      5-min Rain = 0
KMC1 201725Z 22004KT 13/M01 A3033 RMK A01 T01331012  RH  037%=      5-min Rain = 0
KMC1 201726Z 22007KT 13/M02 A3033 RMK A01 T01321015  RH  036%=      5-min Rain = 0
KMC1 201727Z 20006KT 13/M01 A3033 RMK A01 T01301012  RH  038%=      5-min Rain = 0
KMC1 201728Z 23005KT 13/M01 A3033 RMK A01 T01321010  RH  038%=      5-min Rain = 0
KMC1 201729Z 22005KT 14/M01 A3033 RMK A01 T01351007  RH  038%=      5-min Rain = 0
KMC1 201730Z 21007G12KT 14/M01 A3033 RMK A01 T01361009  RH  037%=      5-min Rain = 0
KMC1 201731Z 20007KT 14/M01 A3033 RMK A01 T01351014  RH  036%=      5-min Rain = 0
KMC1 201732Z 21006KT 13/M01 A3033 RMK A01 T01341009  RH  037%=      5-min Rain = 0
KMC1 201733Z 21007KT 14/M01 A3033 RMK A01 T01351012  RH  036%=      5-min Rain = 0
KMC1 201734Z 20008KT 14/M01 A3033 RMK A01 T01351010  RH  037%=      5-min Rain = 0
KMC1 201735Z 22009KT 13/M02 A3033 RMK A01 T01331016  RH  036%=      5-min Rain = 0
KMC1 201736Z 21008KT 13/M02 A3033 RMK A01 T01301015  RH  037%=      5-min Rain = 0
KMC1 201737Z 21008KT 13/M02 A3033 RMK A01 T01301015  RH  037%=      5-min Rain = 0
KMC1 201738Z 22010KT 13/M02 A3033 RMK A01 T01301015  RH  037%=      5-min Rain = 0
KMC1 201739Z 21007KT 13/M02 A3033 RMK A01 T01301015  RH  037%=      5-min Rain = 0
KMC1 201740Z 21008KT 13/M01 A3033 RMK A01 T01301014  RH  037%=      5-min Rain = 0
KMC1 201741Z 20007KT 13/M02 A3033 RMK A01 T01301015  RH  037%=      5-min Rain = 0
KMC1 201742Z 20005KT 13/M01 A3033 RMK A01 T01311009  RH  038%=      5-min Rain = 0
KMC1 201743Z 21007G12KT 14/M01 A3033 RMK A01 T01351007  RH  038%=      5-min Rain = 0
KMC1 201744Z 21008KT 14/M01 A3032 RMK A01 T01351013  RH  036%=      5-min Rain = 0
KMC1 201745Z 19007KT 13/M01 A3032 RMK A01 T01341010  RH  037%=      5-min Rain = 0
KMC1 201746Z 18007KT 13/M01 A3032 RMK A01 T01341011  RH  037%=      5-min Rain = 0
KMC1 201747Z 19006KT 14/M01 A3032 RMK A01 T01351012  RH  036%=      5-min Rain = 0
KMC1 201748Z 18008KT 14/M01 A3032 RMK A01 T01351009  RH  037%=      5-min Rain = 0
KMC1 201749Z 18008KT 14/M01 A3032 RMK A01 T01351010  RH  037%=      5-min Rain = 0
KMC1 201750Z 18007KT 14/M01 A3032 RMK A01 T01351010  RH  037%=      5-min Rain = 0
KMC1 201751Z 18008KT 14/M01 A3032 RMK A01 T01351010  RH  037%=      5-min Rain = 0
KMC1 201752Z 19006KT 14/M01 A3032 RMK A01 T01361010  RH  037%=      5-min Rain = 0
KMC1 201753Z 19009G14KT 14/M01 A3031 RMK A01 T01371007  RH  037%=      5-min Rain = 0
KMC1 201754Z 21008KT 14/M01 A3032 RMK A01 T01391006  RH  037%=      5-min Rain = 0
KMC1 201755Z 21009KT 14/M01 A3032 RMK A01 T01411009  RH  036%=      5-min Rain = 0
KMC1 201756Z 21006KT 14/M01 A3031 RMK A01 T01401010  RH  036%=      5-min Rain = 0
KMC1 201757Z 19006KT 14/M01 A3031 RMK A01 T01401007  RH  036%=      5-min Rain = 0
KMC1 201758Z 20006KT 14/M01 A3031 RMK A01 T01421005  RH  036%=      5-min Rain = 0
KMC1 201759Z 20006G12KT 14/M01 A3031 RMK A01 T01431006  RH  036%=      5-min Rain = 0
KMC1 201800Z 21009KT 15/M00 A3031 RMK A01 T01451004  RH  036%=      5-min Rain = 0
KMC1 201801Z 22008KT 15/M01 A3031 RMK A01 T01451007  RH  035%=      5-min Rain = 0
KMC1 201802Z 21005KT 14/M01 A3031 RMK A01 T01431010  RH  035%=      5-min Rain = 0
KMC1 201803Z 22005KT 14/M01 A3031 RMK A01 T01421008  RH  036%=      5-min Rain = 0
KMC1 201804Z 20008KT 14/M01 A3031 RMK A01 T01421007  RH  036%=      5-min Rain = 0
KMC1 201805Z 20005KT 14/M01 A3031 RMK A01 T01421010  RH  035%=      5-min Rain = 0
KMC1 201806Z 17007KT 14/M01 A3031 RMK A01 T01401009  RH  036%=      5-min Rain = 0
KMC1 201807Z 19008KT 14/M00 A3031 RMK A01 T01411004  RH  037%=      5-min Rain = 0
KMC1 201808Z 18010KT 14/M01 A3031 RMK A01 T01431007  RH  036%=      5-min Rain = 0
KMC1 201809Z 18009KT 14/M01 A3031 RMK A01 T01431008  RH  035%=      5-min Rain = 0
KMC1 201810Z 18009KT 14/M01 A3031 RMK A01 T01431007  RH  036%=      5-min Rain = 0
KMC1 201811Z 19007KT 14/M01 A3031 RMK A01 T01431006  RH  036%=      5-min Rain = 0
KMC1 201812Z 19006KT 14/M01 A3031 RMK A01 T01441005  RH  036%=      5-min Rain = 0
KMC1 201813Z 20007KT 15/M00 A3031 RMK A01 T01461001  RH  037%=      5-min Rain = 0
KMC1 201814Z 20010KT 15/M01 A3031 RMK A01 T01481007  RH  035%=      5-min Rain = 0
KMC1 201815Z 21010KT 15/M01 A3031 RMK A01 T01451012  RH  034%=      5-min Rain = 0
KMC1 201816Z 19009KT 14/M01 A3031 RMK A01 T01431010  RH  035%=      5-min Rain = 0
KMC1 201817Z 20009KT 14/M01 A303 RMK A01 T01431009  RH  035%=      5-min Rain = 0
KMC1 201818Z 21007KT 14/M01 A303 RMK A01 T01441008  RH  035%=      5-min Rain = 0
KMC1 201819Z 20008KT 15/M01 A303 RMK A01 T01451006  RH  035%=      5-min Rain = 0
KMC1 201820Z 20009KT 15/M01 A303 RMK A01 T01461007  RH  035%=      5-min Rain = 0
KMC1 201821Z 21010KT 15/M01 A303 RMK A01 T01471008  RH  035%=      5-min Rain = 0
KMC1 201822Z 20008KT 15/M01 A303 RMK A01 T01461010  RH  034%=      5-min Rain = 0
KMC1 201823Z 20005KT 15/M01 A303 RMK A01 T01451007  RH  035%=      5-min Rain = 0
KMC1 201824Z 20006KT 15/M00 A303 RMK A01 T01481003  RH  036%=      5-min Rain = 0
KMC1 201825Z 20007KT 15/M01 A303 RMK A01 T01501005  RH  035%=      5-min Rain = 0
KMC1 201826Z 20006KT 15/M00 A303 RMK A01 T01501003  RH  035%=      5-min Rain = 0
KMC1 201827Z 21006KT 15/M00 A303 RMK A01 T01521004  RH  034%=      5-min Rain = 0
KMC1 201828Z 21007KT 15/M00 A3029 RMK A01 T01521003  RH  035%=      5-min Rain = 0
KMC1 201829Z 20008KT 15/M00 A303 RMK A01 T01521002  RH  035%=      5-min Rain = 0
KMC1 201830Z 22006KT 15/M00 A3029 RMK A01 T01521004  RH  034%=      5-min Rain = 0
KMC1 201831Z 22008KT 15/M00 A3029 RMK A01 T01521003  RH  035%=      5-min Rain = 0
KMC1 201832Z 21010KT 15/M01 A3029 RMK A01 T01501007  RH  034%=      5-min Rain = 0
KMC1 201833Z 20008KT 15/M01 A3029 RMK A01 T01471010  RH  034%=      5-min Rain = 0
KMC1 201834Z 21007G12KT 15/M01 A3029 RMK A01 T01461006  RH  035%=      5-min Rain = 0
KMC1 201835Z 22010KT 15/M01 A3029 RMK A01 T01471007  RH  035%=      5-min Rain = 0
KMC1 201836Z 21010KT 15/M01 A3029 RMK A01 T01461007  RH  035%=      5-min Rain = 0
KMC1 201837Z 21008KT 15/M01 A3029 RMK A01 T01471006  RH  035%=      5-min Rain = 0
KMC1 201838Z 22007KT 15/M01 A3029 RMK A01 T01471008  RH  035%=      5-min Rain = 0
KMC1 201839Z 22010KT 15/M01 A3028 RMK A01 T01461009  RH  034%=      5-min Rain = 0
KMC1 201840Z 21008KT 15/M01 A3028 RMK A01 T01461008  RH  035%=      5-min Rain = 0
KMC1 201841Z 20007KT 15/M01 A3028 RMK A01 T01461008  RH  035%=      5-min Rain = 0
KMC1 201842Z 19007G13KT 15/M01 A3028 RMK A01 T01461005  RH  036%=      5-min Rain = 0
KMC1 201843Z 19009KT 15/M00 A3028 RMK A01 T01481004  RH  035%=      5-min Rain = 0
KMC1 201844Z 21008KT 15/M01 A3028 RMK A01 T01481007  RH  034%=      5-min Rain = 0
KMC1 201845Z 21008KT 15/M01 A3028 RMK A01 T01491005  RH  035%=      5-min Rain = 0
KMC1 201846Z 21006KT 15/M01 A3028 RMK A01 T01491006  RH  034%=      5-min Rain = 0
KMC1 201847Z 21009KT 15/M01 A3028 RMK A01 T01501005  RH  035%=      5-min Rain = 0
KMC1 201848Z 19009KT 15/M00 A3027 RMK A01 T01501003  RH  035%=      5-min Rain = 0
KMC1 201849Z 19008KT 15/M01 A3027 RMK A01 T01511005  RH  034%=      5-min Rain = 0
KMC1 201850Z 20008KT 15/M01 A3027 RMK A01 T01511006  RH  034%=      5-min Rain = 0
KMC1 201851Z 21010KT 15/M01 A3027 RMK A01 T01501005  RH  035%=      5-min Rain = 0
KMC1 201852Z 21007KT 15/M01 A3027 RMK A01 T01501006  RH  034%=      5-min Rain = 0
KMC1 201853Z 20009KT 15/M01 A3027 RMK A01 T01491005  RH  035%=      5-min Rain = 0
KMC1 201854Z 18010KT 15/M00 A3027 RMK A01 T01481004  RH  035%=      5-min Rain = 0
KMC1 201855Z 18010KT 15/M00 A3027 RMK A01 T01491004  RH  035%=      5-min Rain = 0
KMC1 201856Z 16010KT 15/M01 A3026 RMK A01 T01481005  RH  035%=      5-min Rain = 0
KMC1 201857Z 18007KT 15/M01 A3026 RMK A01 T01481005  RH  035%=      5-min Rain = 0
KMC1 201858Z 19007KT 15/M00 A3026 RMK A01 T01491004  RH  035%=      5-min Rain = 0
KMC1 201859Z 19007KT 15/M01 A3026 RMK A01 T01491006  RH  035%=      5-min Rain = 0
KMC1 201900Z 20009KT 15/M00 A3026 RMK A01 T01481004  RH  035%=      5-min Rain = 0
KMC1 201901Z 20008KT 15/M00 A3026 RMK A01 T01501002  RH  035%=      5-min Rain = 0
KMC1 201902Z 18008KT 15/00 A3026 RMK A01 T015300-0  RH  035%=      5-min Rain = 0
KMC1 201903Z 19010KT 16/M00 A3025 RMK A01 T01551003  RH  034%=      5-min Rain = 0
KMC1 201904Z 20009G14KT 15/M00 A3025 RMK A01 T01541004  RH  034%=      5-min Rain = 0
KMC1 201905Z 20012KT 15/M00 A3025 RMK A01 T01531004  RH  034%=      5-min Rain = 0
KMC1 201906Z 20010KT 15/M01 A3025 RMK A01 T01521005  RH  034%=      5-min Rain = 0
KMC1 201907Z 20008KT 15/M01 A3025 RMK A01 T01521005  RH  034%=      5-min Rain = 0
KMC1 201908Z 21008KT 15/M00 A3025 RMK A01 T01531004  RH  034%=      5-min Rain = 0
KMC1 201909Z 22008KT 15/M00 A3025 RMK A01 T01531003  RH  034%=      5-min Rain = 0
KMC1 201910Z 20009KT 15/M00 A3025 RMK A01 T01541003  RH  034%=      5-min Rain = 0
KMC1 201911Z 20010KT 16/M00 A3024 RMK A01 T01551004  RH  034%=      5-min Rain = 0
KMC1 201912Z 19008KT 16/M00 A3024 RMK A01 T01551001  RH  035%=      5-min Rain = 0
KMC1 201913Z 18008KT 16/00 A3024 RMK A01 T01570002  RH  035%=      5-min Rain = 0
KMC1 201914Z 19010KT 16/00 A3024 RMK A01 T01590003  RH  035%=      5-min Rain = 0
KMC1 201915Z 17009KT 16/00 A3024 RMK A01 T01610002  RH  034%=      5-min Rain = 0
KMC1 201916Z 18010G15KT 16/00 A3024 RMK A01 T016100-0  RH  033%=      5-min Rain = 0
KMC1 201917Z 18010KT 16/00 A3024 RMK A01 T01610002  RH  034%=      5-min Rain = 0
KMC1 201918Z 19009KT 16/M00 A3024 RMK A01 T01611002  RH  033%=      5-min Rain = 0
KMC1 201919Z 17008KT 16/M00 A3024 RMK A01 T01591001  RH  034%=      5-min Rain = 0
KMC1 201920Z 18009KT 16/M00 A3024 RMK A01 T01581002  RH  033%=      5-min Rain = 0
KMC1 201921Z 17007G12KT 16/M00 A3023 RMK A01 T01581001  RH  034%=      5-min Rain = 0
KMC1 201922Z 19010KT 16/00 A3023 RMK A01 T015900-0  RH  034%=      5-min Rain = 0
KMC1 201923Z 19009KT 16/M00 A3023 RMK A01 T01591003  RH  033%=      5-min Rain = 0
KMC1 201924Z 18007KT 16/M00 A3023 RMK A01 T01571003  RH  034%=      5-min Rain = 0
KMC1 201925Z 19008KT 16/00 A3023 RMK A01 T01580002  RH  035%=      5-min Rain = 0
KMC1 201926Z 21012KT 16/00 A3023 RMK A01 T015900-0  RH  034%=      5-min Rain = 0
KMC1 201927Z 20009KT 16/00 A3023 RMK A01 T01600001  RH  034%=      5-min Rain = 0
KMC1 201928Z 19009KT 16/M00 A3023 RMK A01 T01611001  RH  033%=      5-min Rain = 0
KMC1 201929Z 20011KT 16/00 A3023 RMK A01 T016000-0  RH  034%=      5-min Rain = 0
KMC1 201930Z 18007KT 16/00 A3023 RMK A01 T01600002  RH  034%=      5-min Rain = 0
KMC1 201931Z 16009KT 16/00 A3023 RMK A01 T01620002  RH  034%=      5-min Rain = 0
KMC1 201932Z 16007KT 16/00 A3022 RMK A01 T016300-0  RH  033%=      5-min Rain = 0
KMC1 201933Z 18009KT 16/00 A3022 RMK A01 T01630004  RH  034%=      5-min Rain = 0
KMC1 201934Z 18013KT 17/M00 A3022 RMK A01 T01651001  RH  032%=      5-min Rain = 0
KMC1 201935Z 19009KT 16/M01 A3022 RMK A01 T01631007  RH  031%=      5-min Rain = 0
KMC1 201936Z 19009KT 16/M01 A3022 RMK A01 T01611005  RH  032%=      5-min Rain = 0
KMC1 201937Z 21010KT 16/M00 A3022 RMK A01 T01601003  RH  033%=      5-min Rain = 0
KMC1 201938Z 21007KT 16/00 A3022 RMK A01 T01600001  RH  034%=      5-min Rain = 0
KMC1 201939Z 20008KT 16/M00 A3022 RMK A01 T01621002  RH  033%=      5-min Rain = 0
KMC1 201940Z 21008KT 16/M00 A3022 RMK A01 T01611002  RH  033%=      5-min Rain = 0
KMC1 201941Z 19010KT 16/00 A3022 RMK A01 T01610001  RH  034%=      5-min Rain = 0
KMC1 201942Z 18008KT 16/00 A3022 RMK A01 T01620000  RH  033%=      5-min Rain = 0
KMC1 201943Z 18009G14KT 16/M00 A3022 RMK A01 T01631002  RH  033%=      5-min Rain = 0
KMC1 201944Z 17011KT 16/00 A3022 RMK A01 T01630000  RH  033%=      5-min Rain = 0
KMC1 201945Z 20011KT 16/M00 A3022 RMK A01 T01631002  RH  033%=      5-min Rain = 0
KMC1 201946Z 19011G16KT 16/00 A3022 RMK A01 T01620000  RH  033%=      5-min Rain = 0
KMC1 201947Z 18012KT 16/M00 A3022 RMK A01 T01621002  RH  033%=      5-min Rain = 0
KMC1 201948Z 18011KT 16/00 A3022 RMK A01 T01630002  RH  033%=      5-min Rain = 0
KMC1 201949Z 18011KT 16/M00 A3022 RMK A01 T01641001  RH  032%=      5-min Rain = 0
KMC1 201950Z 18008KT 16/00 A3022 RMK A01 T01640000  RH  033%=      5-min Rain = 0
KMC1 201951Z 19009KT 17/M00 A3021 RMK A01 T01651001  RH  033%=      5-min Rain = 0
KMC1 201952Z 19009KT 17/M00 A3021 RMK A01 T01651002  RH  032%=      5-min Rain = 0
KMC1 201953Z 20010KT 17/M00 A3021 RMK A01 T01651002  RH  032%=      5-min Rain = 0
KMC1 201954Z 20008KT 16/M00 A3021 RMK A01 T01641001  RH  033%=      5-min Rain = 0
KMC1 201955Z 19009KT 16/00 A3021 RMK A01 T01640002  RH  033%=      5-min Rain = 0
KMC1 201956Z 18009KT 16/M00 A3021 RMK A01 T01641002  RH  033%=      5-min Rain = 0
KMC1 201957Z 18007KT 16/00 A3021 RMK A01 T01620001  RH  033%=      5-min Rain = 0
KMC1 201958Z 18008KT 16/01 A3021 RMK A01 T01630007  RH  035%=      5-min Rain = 0
KMC1 201959Z 20007KT 17/00 A3021 RMK A01 T01660003  RH  033%=      5-min Rain = 0
KMC1 202000Z 18008KT 17/M00 A3021 RMK A01 T01651001  RH  033%=      5-min Rain = 0
KMC1 202001Z 18010KT 16/00 A3021 RMK A01 T01630003  RH  034%=      5-min Rain = 0
KMC1 202002Z 19009KT 16/00 A3021 RMK A01 T01640001  RH  033%=      5-min Rain = 0
KMC1 202003Z 21008KT 16/00 A3021 RMK A01 T01640002  RH  033%=      5-min Rain = 0
KMC1 202004Z 22008KT 16/00 A3021 RMK A01 T01640000  RH  033%=      5-min Rain = 0
KMC1 202005Z 20008KT 17/00 A3021 RMK A01 T01650002  RH  033%=      5-min Rain = 0
KMC1 202006Z 18008KT 17/00 A3021 RMK A01 T01650003  RH  033%=      5-min Rain = 0
KMC1 202007Z 17009KT 17/00 A3021 RMK A01 T01670002  RH  033%=      5-min Rain = 0
KMC1 202008Z 17009KT 17/M00 A3021 RMK A01 T01671002  RH  032%=      5-min Rain = 0
KMC1 202009Z 21006KT 17/00 A3021 RMK A01 T01670002  RH  033%=      5-min Rain = 0
KMC1 202010Z 20008KT 17/00 A3021 RMK A01 T01690004  RH  033%=      5-min Rain = 0
KMC1 202011Z 20013KT 17/M00 A3021 RMK A01 T01691001  RH  031%=      5-min Rain = 0
KMC1 202012Z 21012KT 17/M01 A3021 RMK A01 T01671005  RH  031%=      5-min Rain = 0
KMC1 202013Z 20011KT 17/M01 A3021 RMK A01 T01651006  RH  031%=      5-min Rain = 0
KMC1 202014Z 20009KT 16/M01 A3021 RMK A01 T01641005  RH  032%=      5-min Rain = 0
KMC1 202015Z 20009KT 16/M00 A3021 RMK A01 T01641002  RH  032%=      5-min Rain = 0
KMC1 202016Z 20011KT 17/M00 A3021 RMK A01 T01661003  RH  032%=      5-min Rain = 0
KMC1 202017Z 18007G13KT 17/M00 A3021 RMK A01 T01661002  RH  032%=      5-min Rain = 0
KMC1 202018Z 18007G12KT 17/00 A3021 RMK A01 T01690002  RH  032%=      5-min Rain = 0
KMC1 202019Z 18011KT 17/M00 A3021 RMK A01 T01701004  RH  031%=      5-min Rain = 0
KMC1 202020Z 19009KT 17/M00 A3021 RMK A01 T01691001  RH  031%=      5-min Rain = 0
KMC1 202021Z 20007KT 17/M01 A3021 RMK A01 T01701005  RH  030%=      5-min Rain = 0
KMC1 202022Z 21009KT 17/M00 A3021 RMK A01 T01691003  RH  031%=      5-min Rain = 0
KMC1 202023Z 20009KT 17/M00 A3021 RMK A01 T01701001  RH  031%=      5-min Rain = 0
KMC1 202024Z 20009KT 17/M00 A3021 RMK A01 T01701003  RH  031%=      5-min Rain = 0
KMC1 202025Z 21008KT 17/M01 A3021 RMK A01 T01681005  RH  031%=      5-min Rain = 0
KMC1 202026Z 21009KT 17/M00 A3021 RMK A01 T01671002  RH  032%=      5-min Rain = 0
KMC1 202027Z 21010KT 17/M00 A3021 RMK A01 T01671002  RH  032%=      5-min Rain = 0
KMC1 202028Z 21010KT 17/00 A3021 RMK A01 T01660000  RH  032%=      5-min Rain = 0
KMC1 202029Z 21009KT 17/M00 A3021 RMK A01 T01671002  RH  032%=      5-min Rain = 0
KMC1 202030Z 20009KT 17/00 A3021 RMK A01 T01670000  RH  032%=      5-min Rain = 0
KMC1 202031Z 21007KT 17/M00 A3021 RMK A01 T01671001  RH  032%=      5-min Rain = 0
KMC1 202032Z 21006KT 17/M00 A3021 RMK A01 T01681001  RH  032%=      5-min Rain = 0
KMC1 202033Z 22010KT 17/00 A3021 RMK A01 T01690001  RH  032%=      5-min Rain = 0
KMC1 202034Z 21009KT 17/M00 A3021 RMK A01 T01701002  RH  031%=      5-min Rain = 0
KMC1 202035Z 20008KT 17/00 A3021 RMK A01 T017000-0  RH  032%=      5-min Rain = 0
KMC1 202036Z 21011KT 17/M00 A302 RMK A01 T01701004  RH  031%=      5-min Rain = 0
KMC1 202037Z 21007KT 17/M00 A302 RMK A01 T01691003  RH  031%=      5-min Rain = 0
KMC1 202038Z 20005KT 17/M00 A302 RMK A01 T01681001  RH  032%=      5-min Rain = 0
KMC1 202039Z 20006KT 17/00 A302 RMK A01 T01690000  RH  032%=      5-min Rain = 0
KMC1 202040Z 17008KT 17/00 A302 RMK A01 T01700003  RH  032%=      5-min Rain = 0
KMC1 202041Z 17007KT 17/00 A302 RMK A01 T01720003  RH  032%=      5-min Rain = 0
KMC1 202042Z 17007KT 17/00 A302 RMK A01 T01720003  RH  032%=      5-min Rain = 0
KMC1 202043Z 20007KT 17/01 A302 RMK A01 T01720005  RH  032%=      5-min Rain = 0
KMC1 202044Z 20009KT 17/00 A302 RMK A01 T01740004  RH  032%=      5-min Rain = 0
KMC1 202045Z 20008KT 17/00 A302 RMK A01 T01720002  RH  032%=      5-min Rain = 0
KMC1 202046Z 20008KT 17/00 A302 RMK A01 T01700001  RH  032%=      5-min Rain = 0
KMC1 202047Z 19008KT 17/00 A302 RMK A01 T01690001  RH  032%=      5-min Rain = 0
KMC1 202048Z 18009KT 17/00 A302 RMK A01 T01690002  RH  032%=      5-min Rain = 0
KMC1 202049Z 17009KT 17/00 A302 RMK A01 T01690003  RH  032%=      5-min Rain = 0
KMC1 202050Z 19009KT 17/00 A302 RMK A01 T01690002  RH  032%=      5-min Rain = 0
KMC1 202051Z 18008KT 17/00 A302 RMK A01 T01690001  RH  032%=      5-min Rain = 0
KMC1 202052Z 18010KT 17/00 A302 RMK A01 T01690004  RH  033%=      5-min Rain = 0
KMC1 202053Z 18008KT 17/00 A302 RMK A01 T01700002  RH  032%=      5-min Rain = 0
KMC1 202054Z 20006KT 17/00 A302 RMK A01 T01700003  RH  032%=      5-min Rain = 0
KMC1 202055Z 19007KT 17/01 A3019 RMK A01 T01710005  RH  032%=      5-min Rain = 0
KMC1 202056Z 19007KT 17/00 A3019 RMK A01 T01730001  RH  031%=      5-min Rain = 0
KMC1 202057Z 19009KT 17/00 A3019 RMK A01 T01710002  RH  032%=      5-min Rain = 0
KMC1 202058Z 19009KT 17/M00 A3019 RMK A01 T01711001  RH  031%=      5-min Rain = 0
KMC1 202059Z 18009G15KT 17/00 A3019 RMK A01 T01700000  RH  032%=      5-min Rain = 0
KMC1 202100Z 19010G15KT 17/00 A3019 RMK A01 T01700001  RH  032%=      5-min Rain = 0
KMC1 202101Z 19007KT 17/00 A3019 RMK A01 T01710001  RH  032%=      5-min Rain = 0
KMC1 202102Z 21009KT 17/00 A3019 RMK A01 T01730004  RH  032%=      5-min Rain = 0
KMC1 202103Z 19009G14KT 18/00 A3019 RMK A01 T01750001  RH  031%=      5-min Rain = 0
KMC1 202104Z 20008KT 17/00 A3019 RMK A01 T017400-0  RH  031%=      5-min Rain = 0
KMC1 202105Z 18005KT 17/M00 A3019 RMK A01 T01721001  RH  031%=      5-min Rain = 0
KMC1 202106Z 19007KT 17/M00 A3019 RMK A01 T01711003  RH  031%=      5-min Rain = 0
KMC1 202107Z 18008KT 17/00 A3019 RMK A01 T01700001  RH  032%=      5-min Rain = 0
KMC1 202108Z 17006KT 17/M00 A3019 RMK A01 T01691003  RH  031%=      5-min Rain = 0
KMC1 202109Z 18007KT 17/00 A3019 RMK A01 T01680000  RH  032%=      5-min Rain = 0
KMC1 202110Z 16009KT 17/00 A3019 RMK A01 T01690003  RH  032%=      5-min Rain = 0
KMC1 202111Z 18008KT 17/00 A3019 RMK A01 T01700002  RH  032%=      5-min Rain = 0
KMC1 202112Z 19008G13KT 17/00 A3019 RMK A01 T01710001  RH  032%=      5-min Rain = 0
KMC1 202113Z 20010KT 17/M00 A3019 RMK A01 T01711001  RH  031%=      5-min Rain = 0
KMC1 202114Z 18009KT 17/00 A3019 RMK A01 T01700001  RH  032%=      5-min Rain = 0
KMC1 202115Z 18010G15KT 17/M00 A3018 RMK A01 T01691002  RH  031%=      5-min Rain = 0
KMC1 202116Z 19011KT 17/M00 A3018 RMK A01 T01681001  RH  032%=      5-min Rain = 0
KMC1 202117Z 19007KT 17/M00 A3018 RMK A01 T01661004  RH  031%=      5-min Rain = 0
KMC1 202118Z 20007KT 17/M00 A3018 RMK A01 T01651001  RH  032%=      5-min Rain = 0
KMC1 202119Z 19009KT 17/M00 A3018 RMK A01 T01651002  RH  032%=      5-min Rain = 0
KMC1 202120Z 18007KT 17/M00 A3018 RMK A01 T01651002  RH  032%=      5-min Rain = 0
KMC1 202121Z 21008KT 17/00 A3018 RMK A01 T01650000  RH  033%=      5-min Rain = 0
KMC1 202122Z 20007KT 17/00 A3018 RMK A01 T016600-0  RH  032%=      5-min Rain = 0
KMC1 202123Z 19007KT 17/00 A3018 RMK A01 T01660002  RH  033%=      5-min Rain = 0
KMC1 202124Z 19006KT 17/M00 A3018 RMK A01 T01661001  RH  032%=      5-min Rain = 0
KMC1 202125Z 20005KT 17/00 A3018 RMK A01 T01660000  RH  033%=      5-min Rain = 0
KMC1 202126Z 22007KT 17/00 A3018 RMK A01 T01660001  RH  033%=      5-min Rain = 0
KMC1 202127Z 20007KT 17/M00 A3018 RMK A01 T01661003  RH  032%=      5-min Rain = 0
KMC1 202128Z 21006KT 17/M00 A3018 RMK A01 T01651003  RH  032%=      5-min Rain = 0
KMC1 202129Z 20007KT 17/00 A3018 RMK A01 T016600-0  RH  032%=      5-min Rain = 0
KMC1 202130Z 20007KT 17/00 A3018 RMK A01 T016800-0  RH  032%=      5-min Rain = 0
KMC1 202131Z 20005KT 17/M00 A3018 RMK A01 T01691001  RH  031%=      5-min Rain = 0
KMC1 202132Z 19009KT 17/M00 A3018 RMK A01 T01711002  RH  031%=      5-min Rain = 0
KMC1 202133Z 19007KT 17/M00 A3018 RMK A01 T01711003  RH  031%=      5-min Rain = 0
KMC1 202134Z 19009KT 17/00 A3018 RMK A01 T01740002  RH  031%=      5-min Rain = 0
KMC1 202135Z 19010KT 18/00 A3018 RMK A01 T017600-0  RH  030%=      5-min Rain = 0
KMC1 202136Z 20008KT 18/M00 A3018 RMK A01 T01771002  RH  030%=      5-min Rain = 0
KMC1 202137Z 21007G12KT 18/M00 A3018 RMK A01 T01771001  RH  030%=      5-min Rain = 0
KMC1 202138Z 21009KT 18/M00 A3018 RMK A01 T01781004  RH  029%=      5-min Rain = 0
KMC1 202139Z 19010KT 18/M00 A3018 RMK A01 T01771004  RH  029%=      5-min Rain = 0
KMC1 202140Z 18009KT 18/M00 A3018 RMK A01 T01771004  RH  029%=      5-min Rain = 0
KMC1 202141Z 19007KT 18/M00 A3018 RMK A01 T01771003  RH  030%=      5-min Rain = 0
KMC1 202142Z 21007KT 18/00 A3018 RMK A01 T017800-0  RH  030%=      5-min Rain = 0
KMC1 202143Z 22009KT 18/M00 A3018 RMK A01 T01791002  RH  029%=      5-min Rain = 0
KMC1 202144Z 21008G13KT 18/M00 A3018 RMK A01 T01791001  RH  030%=      5-min Rain = 0
KMC1 202145Z 21008KT 18/00 A3018 RMK A01 T017800-0  RH  030%=      5-min Rain = 0
KMC1 202146Z 22007KT 18/M00 A3018 RMK A01 T01781001  RH  030%=      5-min Rain = 0
KMC1 202147Z 20006KT 18/00 A3018 RMK A01 T01780001  RH  030%=      5-min Rain = 0
KMC1 202148Z 18010KT 18/00 A3018 RMK A01 T01790000  RH  030%=      5-min Rain = 0
KMC1 202149Z 19009KT 18/M00 A3018 RMK A01 T01781002  RH  030%=      5-min Rain = 0
KMC1 202150Z 19009KT 18/M00 A3018 RMK A01 T01761002  RH  030%=      5-min Rain = 0
KMC1 202151Z 21009KT 18/M01 A3018 RMK A01 T01751006  RH  029%=      5-min Rain = 0
KMC1 202152Z 21007KT 17/M01 A3018 RMK A01 T01741007  RH  029%=      5-min Rain = 0
KMC1 202153Z 21010KT 17/M01 A3018 RMK A01 T01731007  RH  029%=      5-min Rain = 0
KMC1 202154Z 21007KT 17/M01 A3018 RMK A01 T01731006  RH  030%=      5-min Rain = 0
KMC1 202155Z 20008KT 17/M00 A3018 RMK A01 T01731004  RH  030%=      5-min Rain = 0
KMC1 202156Z 22009KT 17/M00 A3018 RMK A01 T01731004  RH  030%=      5-min Rain = 0
KMC1 202157Z 21010KT 17/M00 A3018 RMK A01 T01731003  RH  030%=      5-min Rain = 0
KMC1 202158Z 20010KT 17/M01 A3018 RMK A01 T01731005  RH  030%=      5-min Rain = 0
KMC1 202159Z 21007KT 17/M00 A3018 RMK A01 T01731003  RH  030%=      5-min Rain = 0
KMC1 202200Z 20009KT 17/M01 A3018 RMK A01 T01741005  RH  030%=      5-min Rain = 0
KMC1 202201Z 21007KT 17/M00 A3018 RMK A01 T01741004  RH  030%=      5-min Rain = 0
KMC1 202202Z 22007G12KT 17/M00 A3018 RMK A01 T01741003  RH  030%=      5-min Rain = 0
KMC1 202203Z 20010G15KT 17/M00 A3018 RMK A01 T01741002  RH  030%=      5-min Rain = 0
KMC1 202204Z 19009KT 18/M01 A3018 RMK A01 T01751005  RH  030%=      5-min Rain = 0
KMC1 202205Z 19009KT 18/M01 A3018 RMK A01 T01751005  RH  030%=      5-min Rain = 0
KMC1 202206Z 19008KT 18/M00 A3018 RMK A01 T01751004  RH  030%=      5-min Rain = 0
KMC1 202207Z 20009KT 18/M00 A3018 RMK A01 T01751004  RH  030%=      5-min Rain = 0
KMC1 202208Z 20009KT 18/M00 A3018 RMK A01 T01761004  RH  029%=      5-min Rain = 0
KMC1 202209Z 19007KT 18/M01 A3018 RMK A01 T01761006  RH  029%=      5-min Rain = 0
KMC1 202210Z 20010KT 18/M00 A3018 RMK A01 T01761004  RH  029%=      5-min Rain = 0
KMC1 202211Z 20009KT 18/M01 A3018 RMK A01 T01761008  RH  028%=      5-min Rain = 0
KMC1 202212Z 20008KT 18/M01 A3018 RMK A01 T01751007  RH  029%=      5-min Rain = 0
KMC1 202213Z 20008KT 18/M01 A3018 RMK A01 T01761005  RH  029%=      5-min Rain = 0
KMC1 202214Z 20008KT 18/M01 A3018 RMK A01 T01761005  RH  029%=      5-min Rain = 0
KMC1 202215Z 20008KT 18/M00 A3018 RMK A01 T01761004  RH  029%=      5-min Rain = 0
KMC1 202216Z 20005KT 18/M00 A3018 RMK A01 T01761002  RH  030%=      5-min Rain = 0
KMC1 202217Z 20010KT 18/M00 A3018 RMK A01 T01761003  RH  030%=      5-min Rain = 0
KMC1 202218Z 22009KT 18/M00 A3018 RMK A01 T01761004  RH  030%=      5-min Rain = 0
KMC1 202219Z 21007KT 18/M00 A3018 RMK A01 T01751002  RH  030%=      5-min Rain = 0
KMC1 202220Z 20008KT 17/M00 A3018 RMK A01 T01741002  RH  030%=      5-min Rain = 0
KMC1 202221Z 21007KT 18/M00 A3018 RMK A01 T01751003  RH  030%=      5-min Rain = 0
KMC1 202222Z 22007KT 18/M00 A3018 RMK A01 T01751003  RH  030%=      5-min Rain = 0
KMC1 202223Z 21007KT 18/M00 A3018 RMK A01 T01751002  RH  030%=      5-min Rain = 0
KMC1 202224Z 22010KT 17/M00 A3018 RMK A01 T01741001  RH  030%=      5-min Rain = 0
KMC1 202225Z 21008KT 17/M00 A3018 RMK A01 T01731003  RH  030%=      5-min Rain = 0
KMC1 202226Z 21011KT 17/M00 A3018 RMK A01 T01721004  RH  030%=      5-min Rain = 0
KMC1 202227Z 20009KT 17/M01 A3018 RMK A01 T01711005  RH  030%=      5-min Rain = 0
KMC1 202228Z 21008KT 17/M01 A3018 RMK A01 T01701005  RH  030%=      5-min Rain = 0
KMC1 202229Z 20010KT 17/M01 A3018 RMK A01 T01691006  RH  030%=      5-min Rain = 0
KMC1 202230Z 20007KT 17/M01 A3018 RMK A01 T01691006  RH  031%=      5-min Rain = 0
KMC1 202231Z 20011KT 17/M01 A3018 RMK A01 T01681006  RH  030%=      5-min Rain = 0
KMC1 202232Z 20009KT 17/M01 A3018 RMK A01 T01671007  RH  031%=      5-min Rain = 0
KMC1 202233Z 19008KT 17/M01 A3018 RMK A01 T01671006  RH  031%=      5-min Rain = 0
KMC1 202234Z 20006KT 17/M00 A3018 RMK A01 T01671004  RH  031%=      5-min Rain = 0
KMC1 202235Z 21007KT 17/M00 A3018 RMK A01 T01671002  RH  032%=      5-min Rain = 0
KMC1 202236Z 21008G13KT 17/M00 A3018 RMK A01 T01681003  RH  031%=      5-min Rain = 0
KMC1 202237Z 20011KT 17/M00 A3018 RMK A01 T01681004  RH  031%=      5-min Rain = 0
KMC1 202238Z 20012KT 17/M01 A3018 RMK A01 T01671007  RH  031%=      5-min Rain = 0
KMC1 202239Z 20008KT 17/M01 A3018 RMK A01 T01661006  RH  031%=      5-min Rain = 0
KMC1 202240Z 19006KT 17/M01 A3018 RMK A01 T01651005  RH  031%=      5-min Rain = 0
KMC1 202241Z 20008KT 17/M00 A3018 RMK A01 T01651003  RH  032%=      5-min Rain = 0
KMC1 202242Z 20005KT 17/M01 A3018 RMK A01 T01651005  RH  031%=      5-min Rain = 0
KMC1 202243Z 20007KT 17/M00 A3018 RMK A01 T01661003  RH  032%=      5-min Rain = 0
KMC1 202244Z 20006G11KT 17/M00 A3018 RMK A01 T01661004  RH  031%=      5-min Rain = 0
KMC1 202245Z 21007KT 17/M00 A3018 RMK A01 T01671003  RH  032%=      5-min Rain = 0
KMC1 202246Z 19007KT 17/M00 A3018 RMK A01 T01671002  RH  032%=      5-min Rain = 0
KMC1 202247Z 20009KT 17/M00 A3018 RMK A01 T01681004  RH  031%=      5-min Rain = 0
KMC1 202248Z 20007G12KT 17/M01 A3018 RMK A01 T01681005  RH  031%=      5-min Rain = 0
KMC1 202249Z 20007G13KT 17/M00 A3018 RMK A01 T01671004  RH  031%=      5-min Rain = 0
KMC1 202250Z 20008KT 17/M00 A3018 RMK A01 T01671003  RH  032%=      5-min Rain = 0
KMC1 202251Z 20008KT 17/M00 A3018 RMK A01 T01661004  RH  031%=      5-min Rain = 0
KMC1 202252Z 20007KT 17/M00 A3018 RMK A01 T01661003  RH  032%=      5-min Rain = 0
KMC1 202253Z 21006KT 17/M00 A3018 RMK A01 T01651003  RH  032%=      5-min Rain = 0
KMC1 202254Z 20007KT 17/M00 A3018 RMK A01 T01651002  RH  032%=      5-min Rain = 0
KMC1 202255Z 20007KT 17/M00 A3018 RMK A01 T01661002  RH  032%=      5-min Rain = 0
KMC1 202256Z 21006KT 17/M00 A3018 RMK A01 T01661001  RH  032%=      5-min Rain = 0
KMC1 202257Z 21009KT 17/M00 A3018 RMK A01 T01671001  RH  032%=      5-min Rain = 0
KMC1 202258Z 20008KT 17/M01 A3018 RMK A01 T01681006  RH  031%=      5-min Rain = 0
KMC1 202259Z 20008KT 17/M01 A3018 RMK A01 T01671005  RH  031%=      5-min Rain = 0
KMC1 202300Z 20008KT 17/M00 A3018 RMK A01 T01681004  RH  031%=      5-min Rain = 0
KMC1 202301Z 19007KT 17/M00 A3018 RMK A01 T01671004  RH  031%=      5-min Rain = 0
KMC1 202302Z 19010KT 17/M01 A3018 RMK A01 T01681005  RH  031%=      5-min Rain = 0
KMC1 202303Z 20008KT 17/M01 A3018 RMK A01 T01681005  RH  031%=      5-min Rain = 0
KMC1 202304Z 19008KT 17/M00 A3018 RMK A01 T01671004  RH  031%=      5-min Rain = 0
KMC1 202305Z 18009KT 17/M00 A3017 RMK A01 T01681003  RH  031%=      5-min Rain = 0
KMC1 202306Z 18012KT 17/M01 A3017 RMK A01 T01681006  RH  031%=      5-min Rain = 0
KMC1 202307Z 19007KT 17/M01 A3017 RMK A01 T01671006  RH  031%=      5-min Rain = 0
KMC1 202308Z 20004KT 17/M00 A3017 RMK A01 T01671002  RH  032%=      5-min Rain = 0
KMC1 202309Z 19006KT 17/M00 A3017 RMK A01 T01681001  RH  032%=      5-min Rain = 0
KMC1 202310Z 20009KT 17/M00 A3017 RMK A01 T01691004  RH  031%=      5-min Rain = 0
KMC1 202311Z 20009KT 17/M01 A3018 RMK A01 T01681007  RH  030%=      5-min Rain = 0
KMC1 202312Z 19010KT 17/M01 A3018 RMK A01 T01671009  RH  030%=      5-min Rain = 0
KMC1 202313Z 18010KT 17/M01 A3018 RMK A01 T01661008  RH  031%=      5-min Rain = 0
KMC1 202314Z 18013KT 17/M01 A3018 RMK A01 T01651007  RH  031%=      5-min Rain = 0
KMC1 202315Z 18009G14KT 16/M01 A3018 RMK A01 T01641008  RH  031%=      5-min Rain = 0
KMC1 202316Z 18008KT 16/M01 A3018 RMK A01 T01641007  RH  031%=      5-min Rain = 0
KMC1 202317Z 20009KT 16/M01 A3018 RMK A01 T01631006  RH  031%=      5-min Rain = 0
KMC1 202318Z 19008KT 16/M01 A3018 RMK A01 T01631005  RH  032%=      5-min Rain = 0
KMC1 202319Z 20009KT 16/M01 A3018 RMK A01 T01641006  RH  031%=      5-min Rain = 0
KMC1 202320Z 20009KT 16/M01 A3018 RMK A01 T01641007  RH  031%=      5-min Rain = 0
KMC1 202321Z 20008KT 16/M01 A3018 RMK A01 T01641006  RH  032%=      5-min Rain = 0
KMC1 202322Z 20006KT 16/M01 A3018 RMK A01 T01631005  RH  032%=      5-min Rain = 0
KMC1 202323Z 19007KT 16/M01 A3018 RMK A01 T01631005  RH  032%=      5-min Rain = 0
KMC1 202324Z 20007KT 16/M01 A3018 RMK A01 T01631005  RH  032%=      5-min Rain = 0
KMC1 202325Z 19005KT 16/M00 A3018 RMK A01 T01631004  RH  032%=      5-min Rain = 0
KMC1 202326Z 20007KT 16/M00 A3018 RMK A01 T01631004  RH  032%=      5-min Rain = 0
KMC1 202327Z 19008KT 16/M00 A3018 RMK A01 T01631004  RH  032%=      5-min Rain = 0
KMC1 202328Z 19008KT 16/M01 A3018 RMK A01 T01621006  RH  032%=      5-min Rain = 0
KMC1 202329Z 19008KT 16/M01 A3018 RMK A01 T01621005  RH  032%=      5-min Rain = 0
KMC1 202330Z 18008KT 16/M01 A3018 RMK A01 T01611006  RH  032%=      5-min Rain = 0
KMC1 202331Z 18008KT 16/M01 A3018 RMK A01 T01601007  RH  032%=      5-min Rain = 0
KMC1 202332Z 19010KT 16/M01 A3018 RMK A01 T01601008  RH  032%=      5-min Rain = 0
KMC1 202333Z 19008KT 16/M01 A3018 RMK A01 T01591009  RH  032%=      5-min Rain = 0
KMC1 202334Z 19007KT 16/M01 A3018 RMK A01 T01591007  RH  032%=      5-min Rain = 0
KMC1 202335Z 19008KT 16/M01 A3018 RMK A01 T01581008  RH  032%=      5-min Rain = 0
KMC1 202336Z 19007KT 16/M01 A3018 RMK A01 T01581007  RH  032%=      5-min Rain = 0
KMC1 202337Z 18008KT 16/M01 A3018 RMK A01 T01571007  RH  032%=      5-min Rain = 0
KMC1 202338Z 19007KT 16/M01 A3018 RMK A01 T01571007  RH  033%=      5-min Rain = 0
KMC1 202339Z 19008KT 16/M01 A3018 RMK A01 T01571007  RH  033%=      5-min Rain = 0
KMC1 202340Z 20007KT 16/M01 A3018 RMK A01 T01561006  RH  033%=      5-min Rain = 0
KMC1 202341Z 20007KT 16/M01 A3018 RMK A01 T01561006  RH  033%=      5-min Rain = 0
KMC1 202342Z 19005KT 16/M01 A3018 RMK A01 T01561006  RH  033%=      5-min Rain = 0
KMC1 202343Z 19006KT 16/M01 A3018 RMK A01 T01551005  RH  033%=      5-min Rain = 0
KMC1 202344Z 19009KT 16/M01 A3018 RMK A01 T01551006  RH  033%=      5-min Rain = 0
KMC1 202345Z 19008KT 15/M01 A3018 RMK A01 T01541007  RH  033%=      5-min Rain = 0
KMC1 202346Z 19007KT 15/M01 A3018 RMK A01 T01541007  RH  033%=      5-min Rain = 0
KMC1 202347Z 19007KT 15/M01 A3018 RMK A01 T01531007  RH  033%=      5-min Rain = 0
KMC1 202348Z 19005KT 15/M01 A3018 RMK A01 T01521006  RH  034%=      5-min Rain = 0
KMC1 202349Z 19006KT 15/M01 A3018 RMK A01 T01511006  RH  034%=      5-min Rain = 0
KMC1 202350Z 18007KT 15/M01 A3017 RMK A01 T01501006  RH  034%=      5-min Rain = 0
KMC1 202351Z 18006KT 15/M01 A3017 RMK A01 T01491005  RH  035%=      5-min Rain = 0
KMC1 202352Z 18007KT 15/M01 A3017 RMK A01 T01481005  RH  035%=      5-min Rain = 0
KMC1 202353Z 18007KT 15/M01 A3017 RMK A01 T01471005  RH  035%=      5-min Rain = 0
KMC1 202354Z 18009KT 15/M01 A3017 RMK A01 T01471006  RH  035%=      5-min Rain = 0
KMC1 202355Z 18007KT 15/M01 A3017 RMK A01 T01461007  RH  035%=      5-min Rain = 0
KMC1 202356Z 18007KT 15/M01 A3017 RMK A01 T01461007  RH  035%=      5-min Rain = 0
KMC1 202357Z 18008KT 15/M01 A3017 RMK A01 T01451007  RH  035%=      5-min Rain = 0
KMC1 202358Z 18009KT 14/M01 A3017 RMK A01 T01441008  RH  035%=      5-min Rain = 0
KMC1 202359Z 18008KT 14/M01 A3017 RMK A01 T01441008  RH  035%=      5-min Rain = 0
KMC1 210000Z 19005KT 14/M01 A3017 RMK A01 T01431008  RH  035%=      5-min Rain = 0
KMC1 210001Z 18008KT 14/M01 A3017 RMK A01 T01421007  RH  036%=      5-min Rain = 0
KMC1 210002Z 18007KT 14/M01 A3017 RMK A01 T01411008  RH  036%=      5-min Rain = 0
KMC1 210003Z 18006KT 14/M01 A3017 RMK A01 T01401008  RH  036%=      5-min Rain = 0
KMC1 210004Z 18007KT 14/M01 A3017 RMK A01 T01401007  RH  036%=      5-min Rain = 0
KMC1 210005Z 18006KT 14/M01 A3017 RMK A01 T01391007  RH  036%=      5-min Rain = 0
KMC1 210006Z 17006KT 14/M01 A3017 RMK A01 T01381007  RH  037%=      5-min Rain = 0
KMC1 210007Z 17006KT 14/M01 A3017 RMK A01 T01371007  RH  037%=      5-min Rain = 0
KMC1 210008Z 18006KT 14/M01 A3017 RMK A01 T01371006  RH  037%=      5-min Rain = 0
KMC1 210009Z 17006KT 14/M01 A3017 RMK A01 T01361006  RH  038%=      5-min Rain = 0
KMC1 210010Z 16007KT 14/M01 A3017 RMK A01 T01351005  RH  038%=      5-min Rain = 0
KMC1 210011Z 17007KT 13/M01 A3017 RMK A01 T01341005  RH  039%=      5-min Rain = 0
KMC1 210012Z 18007KT 13/M00 A3017 RMK A01 T01331004  RH  039%=      5-min Rain = 0
KMC1 210013Z 17008KT 13/M00 A3017 RMK A01 T01331004  RH  039%=      5-min Rain = 0
KMC1 210014Z 17006KT 13/M00 A3017 RMK A01 T01331003  RH  039%=      5-min Rain = 0
KMC1 210015Z 18008KT 13/M00 A3017 RMK A01 T01331003  RH  039%=      5-min Rain = 0
KMC1 210016Z 18007KT 13/M00 A3017 RMK A01 T01321003  RH  039%=      5-min Rain = 0
KMC1 210017Z 17006KT 13/M00 A3017 RMK A01 T01311003  RH  040%=      5-min Rain = 0
KMC1 210018Z 18007KT 13/M00 A3017 RMK A01 T01311003  RH  040%=      5-min Rain = 0
KMC1 210019Z 17007KT 13/M00 A3016 RMK A01 T01291003  RH  040%=      5-min Rain = 0
KMC1 210020Z 17007KT 13/M00 A3016 RMK A01 T01291004  RH  040%=      5-min Rain = 0
KMC1 210021Z 17006KT 13/M00 A3016 RMK A01 T01291004  RH  040%=      5-min Rain = 0
KMC1 210022Z 17006KT 13/M00 A3016 RMK A01 T01281003  RH  040%=      5-min Rain = 0
KMC1 210023Z 17006KT 13/M00 A3016 RMK A01 T01271004  RH  040%=      5-min Rain = 0
KMC1 210024Z 17006KT 13/M01 A3017 RMK A01 T01271005  RH  040%=      5-min Rain = 0
KMC1 210025Z 17007KT 13/M01 A3017 RMK A01 T01271005  RH  040%=      5-min Rain = 0
KMC1 210026Z 17006KT 13/M01 A3017 RMK A01 T01271006  RH  040%=      5-min Rain = 0
KMC1 210027Z 17006KT 13/M01 A3017 RMK A01 T01261006  RH  040%=      5-min Rain = 0
KMC1 210028Z 17005KT 13/M01 A3017 RMK A01 T01261006  RH  040%=      5-min Rain = 0
KMC1 210029Z 17006KT 13/M01 A3017 RMK A01 T01251007  RH  040%=      5-min Rain = 0
KMC1 210030Z 17007KT 13/M01 A3017 RMK A01 T01251007  RH  040%=      5-min Rain = 0
KMC1 210031Z 18005KT 13/M01 A3017 RMK A01 T01251008  RH  040%=      5-min Rain = 0
KMC1 210032Z 17006KT 12/M01 A3017 RMK A01 T01241008  RH  040%=      5-min Rain = 0
KMC1 210033Z 17007KT 12/M01 A3017 RMK A01 T01231008  RH  040%=      5-min Rain = 0
KMC1 210034Z 18006KT 12/M01 A3017 RMK A01 T01221008  RH  041%=      5-min Rain = 0
KMC1 210035Z 17006KT 12/M01 A3017 RMK A01 T01221008  RH  041%=      5-min Rain = 0
KMC1 210036Z 18006KT 12/M01 A3017 RMK A01 T01211008  RH  041%=      5-min Rain = 0
KMC1 210037Z 17006KT 12/M01 A3017 RMK A01 T01211008  RH  041%=      5-min Rain = 0
KMC1 210038Z 18008KT 12/M01 A3017 RMK A01 T01211009  RH  041%=      5-min Rain = 0
KMC1 210039Z 18007KT 12/M01 A3017 RMK A01 T01211009  RH  041%=      5-min Rain = 0
KMC1 210040Z 18006KT 12/M01 A3017 RMK A01 T01211009  RH  041%=      5-min Rain = 0
KMC1 210041Z 17008KT 12/M01 A3017 RMK A01 T01211009  RH  041%=      5-min Rain = 0
KMC1 210042Z 18006KT 12/M01 A3017 RMK A01 T01211009  RH  040%=      5-min Rain = 0
KMC1 210043Z 17006KT 12/M01 A3017 RMK A01 T01211009  RH  041%=      5-min Rain = 0
KMC1 210044Z 18008KT 12/M01 A3017 RMK A01 T01201009  RH  041%=      5-min Rain = 0
KMC1 210045Z 18006KT 12/M01 A3017 RMK A01 T01201009  RH  041%=      5-min Rain = 0
KMC1 210046Z 18006KT 12/M01 A3017 RMK A01 T01191008  RH  041%=      5-min Rain = 0
KMC1 210047Z 17006KT 12/M01 A3017 RMK A01 T01191008  RH  041%=      5-min Rain = 0
KMC1 210048Z 17006KT 12/M01 A3017 RMK A01 T01181008  RH  042%=      5-min Rain = 0
KMC1 210049Z 17006KT 12/M01 A3017 RMK A01 T01171009  RH  042%=      5-min Rain = 0
KMC1 210050Z 17005KT 12/M01 A3017 RMK A01 T01171008  RH  042%=      5-min Rain = 0
KMC1 210051Z 17005KT 12/M01 A3017 RMK A01 T01161008  RH  042%=      5-min Rain = 0
KMC1 210052Z 17005KT 12/M01 A3017 RMK A01 T01151008  RH  043%=      5-min Rain = 0
KMC1 210053Z 17005KT 11/M01 A3017 RMK A01 T01141007  RH  043%=      5-min Rain = 0
KMC1 210054Z 17005KT 11/M01 A3017 RMK A01 T01131008  RH  043%=      5-min Rain = 0
KMC1 210055Z 16005KT 11/M01 A3017 RMK A01 T01131007  RH  043%=      5-min Rain = 0
KMC1 210056Z 16005KT 11/M01 A3017 RMK A01 T01121007  RH  044%=      5-min Rain = 0
KMC1 210057Z 16005KT 11/M01 A3017 RMK A01 T01121007  RH  044%=      5-min Rain = 0
KMC1 210058Z 16005KT 11/M01 A3017 RMK A01 T01101007  RH  044%=      5-min Rain = 0
KMC1 210059Z 17006KT 11/M01 A3017 RMK A01 T01101006  RH  044%=      5-min Rain = 0
KMC1 210100Z 17006KT 11/M01 A3017 RMK A01 T01101006  RH  045%=      5-min Rain = 0
KMC1 210101Z 17007KT 11/M01 A3017 RMK A01 T01101006  RH  044%=      5-min Rain = 0
KMC1 210102Z 17007KT 11/M01 A3017 RMK A01 T01101006  RH  044%=      5-min Rain = 0
KMC1 210103Z 17006KT 11/M01 A3017 RMK A01 T01101006  RH  045%=      5-min Rain = 0
KMC1 210104Z 17006KT 11/M01 A3017 RMK A01 T01101007  RH  045%=      5-min Rain = 0
KMC1 210105Z 17007KT 11/M01 A3017 RMK A01 T01091007  RH  045%=      5-min Rain = 0
KMC1 210106Z 18007KT 11/M01 A3017 RMK A01 T01091007  RH  045%=      5-min Rain = 0
KMC1 210107Z 17006KT 11/M01 A3017 RMK A01 T01091007  RH  044%=      5-min Rain = 0
KMC1 210108Z 17006KT 11/M01 A3017 RMK A01 T01101007  RH  045%=      5-min Rain = 0
KMC1 210109Z 17006KT 11/M01 A3017 RMK A01 T01091006  RH  045%=      5-min Rain = 0
KMC1 210110Z 17007KT 11/M01 A3017 RMK A01 T01081007  RH  045%=      5-min Rain = 0
KMC1 210111Z 17007KT 11/M01 A3017 RMK A01 T01071007  RH  045%=      5-min Rain = 0
KMC1 210112Z 17006KT 11/M01 A3017 RMK A01 T01071006  RH  045%=      5-min Rain = 0
KMC1 210113Z 17006KT 11/M01 A3017 RMK A01 T01071006  RH  046%=      5-min Rain = 0
KMC1 210114Z 17007KT 11/M01 A3017 RMK A01 T01061006  RH  046%=      5-min Rain = 0
KMC1 210115Z 17006KT 11/M01 A3017 RMK A01 T01061006  RH  046%=      5-min Rain = 0
KMC1 210116Z 17006KT 11/M01 A3017 RMK A01 T01061006  RH  046%=      5-min Rain = 0
KMC1 210117Z 17005KT 11/M01 A3017 RMK A01 T01051006  RH  046%=      5-min Rain = 0
KMC1 210118Z 17005KT 11/M01 A3017 RMK A01 T01051006  RH  046%=      5-min Rain = 0
KMC1 210119Z 17005KT 10/M01 A3017 RMK A01 T01041006  RH  046%=      5-min Rain = 0
KMC1 210120Z 17005KT 10/M01 A3017 RMK A01 T01031006  RH  047%=      5-min Rain = 0
KMC1 210121Z 17005KT 10/M01 A3017 RMK A01 T01021006  RH  047%=      5-min Rain = 0
KMC1 210122Z 17005KT 10/M01 A3017 RMK A01 T01021006  RH  047%=      5-min Rain = 0
KMC1 210123Z 17005KT 10/M01 A3017 RMK A01 T01021006  RH  047%=      5-min Rain = 0
KMC1 210124Z 16004KT 10/M01 A3017 RMK A01 T01011006  RH  047%=      5-min Rain = 0
KMC1 210125Z 17004KT 10/M01 A3017 RMK A01 T01001006  RH  047%=      5-min Rain = 0
KMC1 210126Z 16005KT 10/M01 A3017 RMK A01 T00991007  RH  048%=      5-min Rain = 0
KMC1 210127Z 16005KT 10/M01 A3017 RMK A01 T00981006  RH  048%=      5-min Rain = 0
KMC1 210128Z 17005KT 10/M01 A3017 RMK A01 T00981007  RH  048%=      5-min Rain = 0
KMC1 210129Z 16005KT 10/M01 A3017 RMK A01 T00971006  RH  048%=      5-min Rain = 0
KMC1 210130Z 17005KT 10/M01 A3017 RMK A01 T00971007  RH  049%=      5-min Rain = 0
KMC1 210131Z 17004KT 10/M01 A3017 RMK A01 T00961007  RH  049%=      5-min Rain = 0
KMC1 210132Z 17005KT 10/M01 A3017 RMK A01 T00961007  RH  049%=      5-min Rain = 0
KMC1 210133Z 17005KT 10/M01 A3017 RMK A01 T00961007  RH  049%=      5-min Rain = 0
KMC1 210134Z 17005KT 10/M01 A3017 RMK A01 T00951007  RH  049%=      5-min Rain = 0
KMC1 210135Z 17005KT 09/M01 A3017 RMK A01 T00941006  RH  049%=      5-min Rain = 0
KMC1 210136Z 17005KT 09/M01 A3017 RMK A01 T00941006  RH  049%=      5-min Rain = 0
KMC1 210137Z 17005KT 09/M01 A3017 RMK A01 T00941006  RH  050%=      5-min Rain = 0
KMC1 210138Z 18005KT 09/M01 A3017 RMK A01 T00941006  RH  050%=      5-min Rain = 0
KMC1 210139Z 18005KT 09/M01 A3017 RMK A01 T00931006  RH  050%=      5-min Rain = 0
KMC1 210140Z 17004KT 09/M01 A3017 RMK A01 T00941006  RH  050%=      5-min Rain = 0
KMC1 210141Z 18004KT 09/M01 A3017 RMK A01 T00941006  RH  049%=      5-min Rain = 0
KMC1 210142Z 17005KT 10/M01 A3017 RMK A01 T00951006  RH  049%=      5-min Rain = 0
KMC1 210143Z 18005KT 10/M01 A3017 RMK A01 T00951006  RH  049%=      5-min Rain = 0
KMC1 210144Z 18005KT 09/M01 A3017 RMK A01 T00941006  RH  049%=      5-min Rain = 0
KMC1 210145Z 17004KT 10/M01 A3017 RMK A01 T00951006  RH  049%=      5-min Rain = 0
KMC1 210146Z 17004KT 09/M01 A3017 RMK A01 T00941006  RH  050%=      5-min Rain = 0
KMC1 210147Z 17004KT 09/M01 A3017 RMK A01 T00931006  RH  050%=      5-min Rain = 0
KMC1 210148Z 17005KT 09/M01 A3017 RMK A01 T00931006  RH  050%=      5-min Rain = 0
KMC1 210149Z 17004KT 09/M01 A3017 RMK A01 T00921006  RH  050%=      5-min Rain = 0
KMC1 210150Z 17005KT 09/M01 A3017 RMK A01 T00921006  RH  050%=      5-min Rain = 0
KMC1 210151Z 17005KT 09/M01 A3017 RMK A01 T00911006  RH  051%=      5-min Rain = 0
KMC1 210152Z 18005KT 09/M01 A3017 RMK A01 T00911006  RH  051%=      5-min Rain = 0
KMC1 210153Z 18005KT 09/M01 A3017 RMK A01 T00911006  RH  051%=      5-min Rain = 0
KMC1 210154Z 17005KT 09/M01 A3017 RMK A01 T00911006  RH  051%=      5-min Rain = 0
KMC1 210155Z 17005KT 09/M01 A3017 RMK A01 T00911005  RH  051%=      5-min Rain = 0
KMC1 210156Z 18005KT 09/M01 A3017 RMK A01 T00901005  RH  051%=      5-min Rain = 0
KMC1 210157Z 17006KT 09/M01 A3017 RMK A01 T00901005  RH  051%=      5-min Rain = 0
KMC1 210158Z 17004KT 09/M01 A3017 RMK A01 T00901005  RH  051%=      5-min Rain = 0
KMC1 210159Z 17006KT 09/M01 A3017 RMK A01 T00911005  RH  051%=      5-min Rain = 0
KMC1 210200Z 17006KT 09/M01 A3017 RMK A01 T00911005  RH  051%=      5-min Rain = 0
KMC1 210201Z 17007KT 09/M01 A3017 RMK A01 T00911005  RH  051%=      5-min Rain = 0
KMC1 210202Z 18006KT 09/M01 A3017 RMK A01 T00911005  RH  051%=      5-min Rain = 0
KMC1 210203Z 18005KT 09/M01 A3017 RMK A01 T00911005  RH  051%=      5-min Rain = 0
KMC1 210204Z 18005KT 09/M01 A3017 RMK A01 T00911005  RH  051%=      5-min Rain = 0
KMC1 210205Z 17005KT 09/M01 A3017 RMK A01 T00911005  RH  051%=      5-min Rain = 0
KMC1 210206Z 18006KT 09/M01 A3017 RMK A01 T00901005  RH  051%=      5-min Rain = 0
KMC1 210207Z 18005KT 09/M01 A3017 RMK A01 T00901006  RH  051%=      5-min Rain = 0
KMC1 210208Z 18006KT 09/M01 A3017 RMK A01 T00901006  RH  051%=      5-min Rain = 0
KMC1 210209Z 18005KT 09/M01 A3017 RMK A01 T00901005  RH  051%=      5-min Rain = 0
KMC1 210210Z 17004KT 09/M01 A3017 RMK A01 T00901005  RH  051%=      5-min Rain = 0
KMC1 210211Z 17006KT 09/M01 A3017 RMK A01 T00901005  RH  051%=      5-min Rain = 0
KMC1 210212Z 18005KT 09/M01 A3017 RMK A01 T00901005  RH  051%=      5-min Rain = 0
KMC1 210213Z 17004KT 09/M01 A3017 RMK A01 T00901005  RH  051%=      5-min Rain = 0
KMC1 210214Z 18005KT 09/M01 A3017 RMK A01 T00891005  RH  052%=      5-min Rain = 0
KMC1 210215Z 18006KT 09/M01 A3017 RMK A01 T00891005  RH  052%=      5-min Rain = 0
KMC1 210216Z 18005KT 09/M01 A3017 RMK A01 T00891005  RH  052%=      5-min Rain = 0
KMC1 210217Z 18005KT 09/M01 A3017 RMK A01 T00891005  RH  052%=      5-min Rain = 0
KMC1 210218Z 19004KT 09/M01 A3017 RMK A01 T00891005  RH  052%=      5-min Rain = 0
KMC1 210219Z 18004KT 09/M01 A3017 RMK A01 T00881005  RH  052%=      5-min Rain = 0
KMC1 210220Z 18005KT 09/M01 A3017 RMK A01 T00881005  RH  052%=      5-min Rain = 0
KMC1 210221Z 18004KT 09/M01 A3017 RMK A01 T00871005  RH  052%=      5-min Rain = 0
KMC1 210222Z 17004KT 09/M01 A3017 RMK A01 T00871005  RH  052%=      5-min Rain = 0
KMC1 210223Z 17003KT 09/M01 A3017 RMK A01 T00871005  RH  053%=      5-min Rain = 0
KMC1 210224Z 17005KT 09/M01 A3017 RMK A01 T00871005  RH  053%=      5-min Rain = 0
KMC1 210225Z 18003KT 09/M01 A3017 RMK A01 T00861005  RH  053%=      5-min Rain = 0
KMC1 210226Z 18003KT 09/M01 A3017 RMK A01 T00861005  RH  053%=      5-min Rain = 0
KMC1 210227Z 18003KT 09/M01 A3017 RMK A01 T00851005  RH  053%=      5-min Rain = 0
KMC1 210228Z 18004KT 08/M01 A3017 RMK A01 T00841005  RH  054%=      5-min Rain = 0
KMC1 210229Z 18004KT 08/M01 A3017 RMK A01 T00831005  RH  054%=      5-min Rain = 0
KMC1 210230Z 18005KT 08/M01 A3017 RMK A01 T00831005  RH  054%=      5-min Rain = 0
KMC1 210231Z 17005KT 08/M01 A3017 RMK A01 T00831005  RH  054%=      5-min Rain = 0
KMC1 210232Z 18004KT 08/M00 A3017 RMK A01 T00841004  RH  054%=      5-min Rain = 0
KMC1 210233Z 19003KT 08/M00 A3017 RMK A01 T00841004  RH  054%=      5-min Rain = 0
KMC1 210234Z 18004KT 08/M00 A3017 RMK A01 T00841004  RH  054%=      5-min Rain = 0
KMC1 210235Z 19004KT 08/M00 A3017 RMK A01 T00831004  RH  054%=      5-min Rain = 0
KMC1 210236Z 18004KT 08/M00 A3017 RMK A01 T00841004  RH  054%=      5-min Rain = 0
KMC1 210237Z 18005KT 08/M00 A3017 RMK A01 T00841004  RH  054%=      5-min Rain = 0
KMC1 210238Z 18005KT 08/M00 A3017 RMK A01 T00831004  RH  054%=      5-min Rain = 0
KMC1 210239Z 18005KT 08/M00 A3017 RMK A01 T00831004  RH  054%=      5-min Rain = 0
KMC1 210240Z 18005KT 08/M00 A3017 RMK A01 T00841004  RH  054%=      5-min Rain = 0
KMC1 210241Z 17005KT 08/M00 A3017 RMK A01 T00841003  RH  054%=      5-min Rain = 0
KMC1 210242Z 18005KT 08/M00 A3017 RMK A01 T00841003  RH  054%=      5-min Rain = 0
KMC1 210243Z 17005KT 08/M00 A3017 RMK A01 T00831003  RH  055%=      5-min Rain = 0
KMC1 210244Z 18006KT 08/M00 A3017 RMK A01 T00831003  RH  055%=      5-min Rain = 0
KMC1 210245Z 18004KT 08/M00 A3017 RMK A01 T00831003  RH  055%=      5-min Rain = 0
KMC1 210246Z 18004KT 08/M00 A3017 RMK A01 T00831003  RH  055%=      5-min Rain = 0
KMC1 210247Z 17005KT 08/M00 A3017 RMK A01 T00831003  RH  055%=      5-min Rain = 0
KMC1 210248Z 18004KT 08/M00 A3016 RMK A01 T00821003  RH  055%=      5-min Rain = 0
KMC1 210249Z 19003KT 08/M00 A3016 RMK A01 T00821003  RH  055%=      5-min Rain = 0
KMC1 210250Z 18005KT 08/M00 A3016 RMK A01 T00821003  RH  055%=      5-min Rain = 0
KMC1 210251Z 17006KT 08/M00 A3017 RMK A01 T00821003  RH  055%=      5-min Rain = 0
KMC1 210252Z 18005KT 08/M00 A3017 RMK A01 T00831003  RH  055%=      5-min Rain = 0
KMC1 210253Z 18005KT 08/M00 A3016 RMK A01 T00831004  RH  054%=      5-min Rain = 0
KMC1 210254Z 18005KT 08/M00 A3016 RMK A01 T00831003  RH  054%=      5-min Rain = 0
KMC1 210255Z 18005KT 08/M00 A3016 RMK A01 T00831003  RH  055%=      5-min Rain = 0
KMC1 210256Z 18004KT 08/M00 A3016 RMK A01 T00821003  RH  055%=      5-min Rain = 0
KMC1 210257Z 18005KT 08/M00 A3016 RMK A01 T00821003  RH  055%=      5-min Rain = 0
KMC1 210258Z 18005KT 08/M00 A3016 RMK A01 T00821003  RH  055%=      5-min Rain = 0
KMC1 210259Z 18005KT 08/M00 A3016 RMK A01 T00811003  RH  055%=      5-min Rain = 0
KMC1 210300Z 17005KT 08/M00 A3016 RMK A01 T00821003  RH  055%=      5-min Rain = 0
KMC1 210301Z 17004KT 08/M00 A3016 RMK A01 T00811003  RH  055%=      5-min Rain = 0
KMC1 210302Z 17005KT 08/M00 A3016 RMK A01 T00811003  RH  055%=      5-min Rain = 0
KMC1 210303Z 17005KT 08/M00 A3016 RMK A01 T00811003  RH  056%=      5-min Rain = 0
KMC1 210304Z 17005KT 08/M00 A3016 RMK A01 T00811003  RH  056%=      5-min Rain = 0
KMC1 210305Z 17004KT 08/M00 A3016 RMK A01 T00811003  RH  056%=      5-min Rain = 0
KMC1 210306Z 18005KT 08/M00 A3016 RMK A01 T00811003  RH  056%=      5-min Rain = 0
KMC1 210307Z 17006KT 08/M00 A3016 RMK A01 T00811003  RH  056%=      5-min Rain = 0
KMC1 210308Z 18004KT 08/M00 A3016 RMK A01 T00811003  RH  055%=      5-min Rain = 0
KMC1 210309Z 18005KT 08/M00 A3016 RMK A01 T00811003  RH  055%=      5-min Rain = 0
KMC1 210310Z 19005KT 08/M00 A3016 RMK A01 T00811003  RH  055%=      5-min Rain = 0
KMC1 210311Z 18004KT 08/M00 A3016 RMK A01 T00811003  RH  055%=      5-min Rain = 0
KMC1 210312Z 18004KT 08/M00 A3016 RMK A01 T00811004  RH  055%=      5-min Rain = 0
KMC1 210313Z 19003KT 08/M00 A3016 RMK A01 T00821003  RH  055%=      5-min Rain = 0
KMC1 210314Z 18004KT 08/M00 A3016 RMK A01 T00811003  RH  055%=      5-min Rain = 0
KMC1 210315Z 18005KT 08/M00 A3016 RMK A01 T00811004  RH  055%=      5-min Rain = 0
KMC1 210316Z 19004KT 08/M00 A3016 RMK A01 T00811004  RH  055%=      5-min Rain = 0
KMC1 210317Z 19003KT 08/M00 A3016 RMK A01 T00801003  RH  056%=      5-min Rain = 0
KMC1 210318Z 17003KT 08/M00 A3016 RMK A01 T00801004  RH  056%=      5-min Rain = 0
KMC1 210319Z 18004KT 08/M00 A3016 RMK A01 T00791004  RH  056%=      5-min Rain = 0
KMC1 210320Z 18004KT 08/M00 A3016 RMK A01 T00791004  RH  056%=      5-min Rain = 0
KMC1 210321Z 19004KT 08/M00 A3016 RMK A01 T00791004  RH  056%=      5-min Rain = 0
KMC1 210322Z 18005KT 08/M00 A3016 RMK A01 T00791004  RH  056%=      5-min Rain = 0
KMC1 210323Z 18006KT 08/M00 A3016 RMK A01 T00801004  RH  055%=      5-min Rain = 0
KMC1 210324Z 18007KT 08/M00 A3016 RMK A01 T00811004  RH  055%=      5-min Rain = 0
KMC1 210325Z 19007KT 08/M00 A3016 RMK A01 T00821004  RH  055%=      5-min Rain = 0
KMC1 210326Z 18005KT 08/M00 A3016 RMK A01 T00811004  RH  055%=      5-min Rain = 0
KMC1 210327Z 18006KT 08/M00 A3016 RMK A01 T00821003  RH  055%=      5-min Rain = 0
KMC1 210328Z 18007KT 08/M00 A3016 RMK A01 T00811004  RH  055%=      5-min Rain = 0
KMC1 210329Z 18006KT 08/M00 A3016 RMK A01 T00811004  RH  055%=      5-min Rain = 0
KMC1 210330Z 18006KT 08/M01 A3015 RMK A01 T00811005  RH  055%=      5-min Rain = 0
KMC1 210331Z 18005KT 08/M01 A3015 RMK A01 T00811005  RH  055%=      5-min Rain = 0
KMC1 210332Z 19007KT 08/M00 A3015 RMK A01 T00811004  RH  055%=      5-min Rain = 0
KMC1 210333Z 18007G12KT 08/M00 A3015 RMK A01 T00811004  RH  055%=      5-min Rain = 0
KMC1 210334Z 18007KT 08/M01 A3015 RMK A01 T00811005  RH  055%=      5-min Rain = 0
KMC1 210335Z 19006KT 08/M01 A3015 RMK A01 T00821005  RH  054%=      5-min Rain = 0
KMC1 210336Z 18007KT 08/M01 A3015 RMK A01 T00821005  RH  054%=      5-min Rain = 0
KMC1 210337Z 18006KT 08/M01 A3015 RMK A01 T00821005  RH  054%=      5-min Rain = 0
KMC1 210338Z 18007KT 08/M01 A3015 RMK A01 T00821005  RH  054%=      5-min Rain = 0
KMC1 210339Z 19006KT 08/M01 A3015 RMK A01 T00811005  RH  055%=      5-min Rain = 0
KMC1 210340Z 18005KT 08/M01 A3015 RMK A01 T00801005  RH  055%=      5-min Rain = 0
KMC1 210341Z 18005KT 08/M01 A3015 RMK A01 T00801005  RH  055%=      5-min Rain = 0
KMC1 210342Z 18007KT 08/M01 A3015 RMK A01 T00791005  RH  055%=      5-min Rain = 0
KMC1 210343Z 19006KT 08/M01 A3015 RMK A01 T00791005  RH  055%=      5-min Rain = 0
KMC1 210344Z 19006KT 08/M01 A3015 RMK A01 T00801005  RH  055%=      5-min Rain = 0
KMC1 210345Z 18006KT 08/M01 A3015 RMK A01 T00801005  RH  055%=      5-min Rain = 0
KMC1 210346Z 18006KT 08/M01 A3015 RMK A01 T00801005  RH  055%=      5-min Rain = 0
KMC1 210347Z 19006KT 08/M01 A3015 RMK A01 T00801005  RH  055%=      5-min Rain = 0
KMC1 210348Z 18006KT 08/M01 A3015 RMK A01 T00801005  RH  055%=      5-min Rain = 0
KMC1 210349Z 18008KT 08/M01 A3015 RMK A01 T00791005  RH  055%=      5-min Rain = 0
KMC1 210350Z 18006KT 08/M01 A3015 RMK A01 T00791005  RH  055%=      5-min Rain = 0
KMC1 210351Z 18006KT 08/M01 A3015 RMK A01 T00791006  RH  055%=      5-min Rain = 0
KMC1 210352Z 19005KT 08/M01 A3015 RMK A01 T00791005  RH  055%=      5-min Rain = 0
KMC1 210353Z 18007KT 08/M01 A3015 RMK A01 T00791006  RH  055%=      5-min Rain = 0
KMC1 210354Z 19005KT 08/M01 A3014 RMK A01 T00791006  RH  055%=      5-min Rain = 0
KMC1 210355Z 18006KT 08/M01 A3014 RMK A01 T00791006  RH  055%=      5-min Rain = 0
KMC1 210356Z 18007KT 08/M01 A3014 RMK A01 T00791006  RH  055%=      5-min Rain = 0
KMC1 210357Z 18005KT 08/M01 A3014 RMK A01 T00791006  RH  055%=      5-min Rain = 0
KMC1 210358Z 19006KT 08/M01 A3014 RMK A01 T00791006  RH  055%=      5-min Rain = 0
KMC1 210359Z 17007KT 08/M01 A3014 RMK A01 T00791006  RH  055%=      5-min Rain = 0
KMC1 210400Z 17006KT 08/M01 A3014 RMK A01 T00791006  RH  055%=      5-min Rain = 0
KMC1 210401Z 17006KT 08/M01 A3014 RMK A01 T00791006  RH  055%=      5-min Rain = 0
KMC1 210402Z 18007KT 08/M01 A3014 RMK A01 T00791006  RH  055%=      5-min Rain = 0
KMC1 210403Z 18005KT 08/M01 A3014 RMK A01 T00781007  RH  055%=      5-min Rain = 0
KMC1 210404Z 17005KT 08/M01 A3014 RMK A01 T00781006  RH  055%=      5-min Rain = 0
KMC1 210405Z 18005KT 08/M01 A3014 RMK A01 T00781006  RH  055%=      5-min Rain = 0
KMC1 210406Z 17007KT 08/M01 A3014 RMK A01 T00781007  RH  055%=      5-min Rain = 0
KMC1 210407Z 18008G13KT 08/M01 A3014 RMK A01 T00781007  RH  055%=      5-min Rain = 0
KMC1 210408Z 17006KT 08/M01 A3014 RMK A01 T00781007  RH  055%=      5-min Rain = 0
KMC1 210409Z 17006KT 08/M01 A3014 RMK A01 T00791007  RH  055%=      5-min Rain = 0
KMC1 210410Z 17005KT 08/M01 A3014 RMK A01 T00781007  RH  055%=      5-min Rain = 0
KMC1 210411Z 17006KT 08/M01 A3014 RMK A01 T00781007  RH  055%=      5-min Rain = 0
KMC1 210412Z 18007KT 08/M01 A3014 RMK A01 T00771007  RH  055%=      5-min Rain = 0
KMC1 210413Z 18006KT 08/M01 A3014 RMK A01 T00771007  RH  055%=      5-min Rain = 0
KMC1 210414Z 17006KT 08/M01 A3014 RMK A01 T00771007  RH  055%=      5-min Rain = 0
KMC1 210415Z 18006KT 08/M01 A3014 RMK A01 T00771007  RH  055%=      5-min Rain = 0
KMC1 210416Z 18008KT 08/M01 A3014 RMK A01 T00771007  RH  055%=      5-min Rain = 0
KMC1 210417Z 17007KT 08/M01 A3014 RMK A01 T00771008  RH  055%=      5-min Rain = 0
KMC1 210418Z 18007KT 08/M01 A3014 RMK A01 T00771008  RH  055%=      5-min Rain = 0
KMC1 210419Z 18006KT 08/M01 A3014 RMK A01 T00771008  RH  055%=      5-min Rain = 0
KMC1 210420Z 17006KT 08/M01 A3014 RMK A01 T00771008  RH  055%=      5-min Rain = 0
KMC1 210421Z 18006KT 08/M01 A3014 RMK A01 T00771008  RH  055%=      5-min Rain = 0
KMC1 210422Z 18005KT 08/M01 A3014 RMK A01 T00771008  RH  055%=      5-min Rain = 0
KMC1 210423Z 17006KT 08/M01 A3014 RMK A01 T00761008  RH  055%=      5-min Rain = 0
KMC1 210424Z 18006KT 08/M01 A3014 RMK A01 T00761008  RH  055%=      5-min Rain = 0
KMC1 210425Z 17006KT 08/M01 A3014 RMK A01 T00761008  RH  055%=      5-min Rain = 0
KMC1 210426Z 18006KT 08/M01 A3014 RMK A01 T00761008  RH  055%=      5-min Rain = 0
KMC1 210427Z 17007KT 08/M01 A3014 RMK A01 T00761008  RH  055%=      5-min Rain = 0
KMC1 210428Z 17004KT 08/M01 A3014 RMK A01 T00761008  RH  055%=      5-min Rain = 0
KMC1 210429Z 18006KT 08/M01 A3014 RMK A01 T00751008  RH  055%=      5-min Rain = 0
KMC1 210430Z 18006KT 08/M01 A3014 RMK A01 T00751009  RH  056%=      5-min Rain = 0
KMC1 210431Z 18004KT 07/M01 A3014 RMK A01 T00741008  RH  056%=      5-min Rain = 0
KMC1 210432Z 18005KT 07/M01 A3014 RMK A01 T00741009  RH  056%=      5-min Rain = 0
KMC1 210433Z 17006KT 07/M01 A3014 RMK A01 T00741009  RH  056%=      5-min Rain = 0
KMC1 210434Z 17005KT 07/M01 A3014 RMK A01 T00741009  RH  056%=      5-min Rain = 0
KMC1 210435Z 17006KT 07/M01 A3014 RMK A01 T00741009  RH  056%=      5-min Rain = 0
KMC1 210436Z 17007KT 07/M01 A3014 RMK A01 T00731009  RH  056%=      5-min Rain = 0
KMC1 210437Z 17006KT 07/M01 A3014 RMK A01 T00741009  RH  056%=      5-min Rain = 0
KMC1 210438Z 17006KT 07/M01 A3013 RMK A01 T00741009  RH  056%=      5-min Rain = 0
KMC1 210439Z 17006KT 07/M01 A3013 RMK A01 T00741009  RH  056%=      5-min Rain = 0
KMC1 210440Z 17007KT 07/M01 A3013 RMK A01 T00731009  RH  056%=      5-min Rain = 0
KMC1 210441Z 17006KT 07/M01 A3013 RMK A01 T00731010  RH  056%=      5-min Rain = 0
KMC1 210442Z 17007KT 07/M01 A3013 RMK A01 T00741010  RH  055%=      5-min Rain = 0
KMC1 210443Z 18008KT 07/M01 A3014 RMK A01 T00741010  RH  055%=      5-min Rain = 0
KMC1 210444Z 18005KT 08/M01 A3014 RMK A01 T00751009  RH  055%=      5-min Rain = 0
KMC1 210445Z 17006KT 08/M01 A3014 RMK A01 T00751009  RH  055%=      5-min Rain = 0
KMC1 210446Z 18006KT 08/M01 A3014 RMK A01 T00751009  RH  055%=      5-min Rain = 0
KMC1 210447Z 18005KT 07/M01 A3014 RMK A01 T00741009  RH  055%=      5-min Rain = 0
KMC1 210448Z 17005KT 07/M01 A3014 RMK A01 T00741010  RH  055%=      5-min Rain = 0
KMC1 210449Z 17006KT 07/M01 A3014 RMK A01 T00741009  RH  056%=      5-min Rain = 0
KMC1 210450Z 18007KT 07/M01 A3014 RMK A01 T00731010  RH  055%=      5-min Rain = 0
KMC1 210451Z 18006KT 07/M01 A3014 RMK A01 T00741010  RH  055%=      5-min Rain = 0
KMC1 210452Z 16007KT 07/M01 A3014 RMK A01 T00741010  RH  055%=      5-min Rain = 0
KMC1 210453Z 17006KT 07/M01 A3014 RMK A01 T00741010  RH  055%=      5-min Rain = 0
KMC1 210454Z 16006KT 07/M01 A3014 RMK A01 T00731010  RH  055%=      5-min Rain = 0
KMC1 210455Z 17006KT 07/M01 A3014 RMK A01 T00731010  RH  056%=      5-min Rain = 0
KMC1 210456Z 16005KT 07/M01 A3014 RMK A01 T00731010  RH  056%=      5-min Rain = 0
KMC1 210457Z 17006KT 07/M01 A3014 RMK A01 T00731010  RH  056%=      5-min Rain = 0
KMC1 210458Z 18005KT 07/M01 A3014 RMK A01 T00721010  RH  056%=      5-min Rain = 0
KMC1 210459Z 17005KT 07/M01 A3014 RMK A01 T00721010  RH  056%=      5-min Rain = 0
KMC1 210500Z 17005KT 07/M01 A3013 RMK A01 T00721010  RH  056%=      5-min Rain = 0
KMC1 210501Z 17007KT 07/M01 A3013 RMK A01 T00721010  RH  056%=      5-min Rain = 0
KMC1 210502Z 17006KT 07/M01 A3013 RMK A01 T00721010  RH  056%=      5-min Rain = 0
KMC1 210503Z 17007KT 07/M01 A3013 RMK A01 T00721010  RH  056%=      5-min Rain = 0
KMC1 210504Z 17007KT 07/M01 A3013 RMK A01 T00721010  RH  056%=      5-min Rain = 0
KMC1 210505Z 17006KT 07/M01 A3013 RMK A01 T00721010  RH  056%=      5-min Rain = 0
KMC1 210506Z 17005KT 07/M01 A3013 RMK A01 T00721010  RH  056%=      5-min Rain = 0
KMC1 210507Z 17007KT 07/M01 A3013 RMK A01 T00711010  RH  056%=      5-min Rain = 0
KMC1 210508Z 17008KT 07/M01 A3013 RMK A01 T00711010  RH  056%=      5-min Rain = 0
KMC1 210509Z 17007KT 07/M01 A3013 RMK A01 T00711010  RH  056%=      5-min Rain = 0
KMC1 210510Z 17007KT 07/M01 A3013 RMK A01 T00711010  RH  056%=      5-min Rain = 0
KMC1 210511Z 17008KT 07/M01 A3013 RMK A01 T00711010  RH  056%=      5-min Rain = 0
KMC1 210512Z 17009KT 07/M01 A3013 RMK A01 T00721010  RH  056%=      5-min Rain = 0
KMC1 210513Z 17007KT 07/M01 A3013 RMK A01 T00721010  RH  056%=      5-min Rain = 0
KMC1 210514Z 17007KT 07/M01 A3013 RMK A01 T00721010  RH  056%=      5-min Rain = 0
KMC1 210515Z 18007KT 07/M01 A3013 RMK A01 T00731010  RH  056%=      5-min Rain = 0
KMC1 210516Z 16006KT 07/M01 A3014 RMK A01 T00721010  RH  056%=      5-min Rain = 0
KMC1 210517Z 17006KT 07/M01 A3014 RMK A01 T00721010  RH  056%=      5-min Rain = 0
KMC1 210518Z 18006KT 07/M01 A3014 RMK A01 T00721010  RH  056%=      5-min Rain = 0
KMC1 210519Z 18007KT 07/M01 A3013 RMK A01 T00711010  RH  056%=      5-min Rain = 0
KMC1 210520Z 18007KT 07/M01 A3013 RMK A01 T00711010  RH  056%=      5-min Rain = 0
KMC1 210521Z 17006KT 07/M01 A3013 RMK A01 T00711010  RH  056%=      5-min Rain = 0
KMC1 210522Z 17008KT 07/M01 A3013 RMK A01 T00711010  RH  056%=      5-min Rain = 0
KMC1 210523Z 18007KT 07/M01 A3013 RMK A01 T00711010  RH  056%=      5-min Rain = 0
KMC1 210524Z 17008KT 07/M01 A3013 RMK A01 T00711011  RH  056%=      5-min Rain = 0
KMC1 210525Z 17008KT 07/M01 A3013 RMK A01 T00721010  RH  056%=      5-min Rain = 0
KMC1 210526Z 17007KT 07/M01 A3013 RMK A01 T00721011  RH  056%=      5-min Rain = 0
KMC1 210527Z 18007KT 07/M01 A3013 RMK A01 T00721010  RH  056%=      5-min Rain = 0
KMC1 210528Z 17006KT 07/M01 A3013 RMK A01 T00721010  RH  056%=      5-min Rain = 0
KMC1 210529Z 17006KT 07/M01 A3013 RMK A01 T00711010  RH  056%=      5-min Rain = 0
KMC1 210530Z 17008KT 07/M01 A3013 RMK A01 T00711010  RH  056%=      5-min Rain = 0
KMC1 210531Z 17009KT 07/M01 A3013 RMK A01 T00711011  RH  056%=      5-min Rain = 0
KMC1 210532Z 17006KT 07/M01 A3013 RMK A01 T00721010  RH  056%=      5-min Rain = 0
KMC1 210533Z 17006KT 07/M01 A3013 RMK A01 T00711011  RH  056%=      5-min Rain = 0
KMC1 210534Z 17008KT 07/M01 A3012 RMK A01 T00721010  RH  056%=      5-min Rain = 0
KMC1 210535Z 18008KT 07/M01 A3012 RMK A01 T00721010  RH  056%=      5-min Rain = 0
KMC1 210536Z 17006KT 07/M01 A3012 RMK A01 T00721010  RH  056%=      5-min Rain = 0
KMC1 210537Z 17007KT 07/M01 A3013 RMK A01 T00721010  RH  056%=      5-min Rain = 0
KMC1 210538Z 18006KT 07/M01 A3013 RMK A01 T00721010  RH  056%=      5-min Rain = 0
KMC1 210539Z 18006KT 07/M01 A3013 RMK A01 T00721010  RH  056%=      5-min Rain = 0
KMC1 210540Z 18006KT 07/M01 A3013 RMK A01 T00721010  RH  056%=      5-min Rain = 0
KMC1 210541Z 18008KT 07/M01 A3013 RMK A01 T00721010  RH  056%=      5-min Rain = 0
KMC1 210542Z 18010KT 07/M01 A3013 RMK A01 T00721011  RH  056%=      5-min Rain = 0
KMC1 210543Z 18008KT 07/M01 A3012 RMK A01 T00731010  RH  056%=      5-min Rain = 0
KMC1 210544Z 18008KT 07/M01 A3012 RMK A01 T00721011  RH  055%=      5-min Rain = 0
KMC1 210545Z 19008KT 07/M01 A3012 RMK A01 T00731011  RH  055%=      5-min Rain = 0
KMC1 210546Z 17008G13KT 07/M01 A3012 RMK A01 T00731011  RH  055%=      5-min Rain = 0
KMC1 210547Z 18008KT 07/M01 A3012 RMK A01 T00731010  RH  055%=      5-min Rain = 0
KMC1 210548Z 18008KT 07/M01 A3012 RMK A01 T00731010  RH  055%=      5-min Rain = 0
KMC1 210549Z 18007KT 07/M01 A3012 RMK A01 T00731010  RH  055%=      5-min Rain = 0
KMC1 210550Z 17007KT 07/M01 A3012 RMK A01 T00731011  RH  055%=      5-min Rain = 0
KMC1 210551Z 18007KT 07/M01 A3012 RMK A01 T00721011  RH  055%=      5-min Rain = 0
KMC1 210552Z 18007KT 07/M01 A3012 RMK A01 T00721011  RH  055%=      5-min Rain = 0
KMC1 210553Z 17009KT 07/M01 A3012 RMK A01 T00721011  RH  055%=      5-min Rain = 0
KMC1 210554Z 18007KT 07/M01 A3012 RMK A01 T00721011  RH  055%=      5-min Rain = 0
KMC1 210555Z 18007KT 07/M01 A3012 RMK A01 T00721011  RH  055%=      5-min Rain = 0
KMC1 210556Z 18009KT 07/M01 A3012 RMK A01 T00721011  RH  055%=      5-min Rain = 0
KMC1 210557Z 18007G12KT 07/M01 A3012 RMK A01 T00731011  RH  055%=      5-min Rain = 0
KMC1 210558Z 18009KT 07/M01 A3012 RMK A01 T00731011  RH  055%=      5-min Rain = 0
KMC1 210559Z 18009KT 07/M01 A3012 RMK A01 T00731011  RH  055%=      5-min Rain = 0

Page generated in 0.0767 seconds.